<?xml version="1.0" encoding="UTF-8" standalone="no" ?>
<gpx xmlns="http://www.topografix.com/GPX/1/1" xmlns:xsi="http://www.w3.org/2001/XMLSchema-instance" xsi:schemaLocation="http://www.topografix.com/GPX/1/1 http://www.topografix.com/GPX/1/1/gpx.xsd" version="1.1" creator="VisuGPX - https://www.visugpx.com">
  <metadata>
    <name>Libin MARCHE ADEPS 2013 (Avril)</name>
    <desc><![CDATA[Marche adeps bien sympa a faire autour de Libin ]]></desc>
  </metadata>
  <trk>
    <name><![CDATA[duo  choupy & scooby]]></name>
    <trkseg>
      <trkpt lat="49.98226" lon="5.25997">
        <ele>397</ele>
        <time>2013-04-28T06:00:44Z</time>
      </trkpt>
      <trkpt lat="49.98233" lon="5.26014">
        <ele>398</ele>
        <time>2013-04-28T06:00:54Z</time>
      </trkpt>
      <trkpt lat="49.98242" lon="5.26031">
        <ele>399</ele>
        <time>2013-04-28T06:01:04Z</time>
      </trkpt>
      <trkpt lat="49.98249" lon="5.26049">
        <ele>401</ele>
        <time>2013-04-28T06:01:14Z</time>
      </trkpt>
      <trkpt lat="49.98254" lon="5.26067">
        <ele>401</ele>
        <time>2013-04-28T06:01:24Z</time>
      </trkpt>
      <trkpt lat="49.98255" lon="5.26087">
        <ele>401</ele>
        <time>2013-04-28T06:01:34Z</time>
      </trkpt>
      <trkpt lat="49.98254" lon="5.26107">
        <ele>402</ele>
        <time>2013-04-28T06:01:44Z</time>
      </trkpt>
      <trkpt lat="49.98256" lon="5.26127">
        <ele>402</ele>
        <time>2013-04-28T06:01:54Z</time>
      </trkpt>
      <trkpt lat="49.98262" lon="5.26144">
        <ele>403</ele>
        <time>2013-04-28T06:02:04Z</time>
      </trkpt>
      <trkpt lat="49.98267" lon="5.26159">
        <ele>404</ele>
        <time>2013-04-28T06:02:14Z</time>
      </trkpt>
      <trkpt lat="49.98272" lon="5.26177">
        <ele>404</ele>
        <time>2013-04-28T06:02:24Z</time>
      </trkpt>
      <trkpt lat="49.98276" lon="5.26196">
        <ele>405</ele>
        <time>2013-04-28T06:02:34Z</time>
      </trkpt>
      <trkpt lat="49.98283" lon="5.26213">
        <ele>405</ele>
        <time>2013-04-28T06:02:44Z</time>
      </trkpt>
      <trkpt lat="49.98289" lon="5.26231">
        <ele>407</ele>
        <time>2013-04-28T06:02:54Z</time>
      </trkpt>
      <trkpt lat="49.98294" lon="5.26249">
        <ele>407</ele>
        <time>2013-04-28T06:03:04Z</time>
      </trkpt>
      <trkpt lat="49.98301" lon="5.26266">
        <ele>407</ele>
        <time>2013-04-28T06:03:14Z</time>
      </trkpt>
      <trkpt lat="49.98306" lon="5.26283">
        <ele>408</ele>
        <time>2013-04-28T06:03:25Z</time>
      </trkpt>
      <trkpt lat="49.98311" lon="5.26298">
        <ele>408</ele>
        <time>2013-04-28T06:03:35Z</time>
      </trkpt>
      <trkpt lat="49.98315" lon="5.26312">
        <ele>409</ele>
        <time>2013-04-28T06:03:45Z</time>
      </trkpt>
      <trkpt lat="49.98324" lon="5.26328">
        <ele>410</ele>
        <time>2013-04-28T06:03:55Z</time>
      </trkpt>
      <trkpt lat="49.98329" lon="5.26346">
        <ele>411</ele>
        <time>2013-04-28T06:04:05Z</time>
      </trkpt>
      <trkpt lat="49.98335" lon="5.26362">
        <ele>410</ele>
        <time>2013-04-28T06:04:15Z</time>
      </trkpt>
      <trkpt lat="49.98341" lon="5.26379">
        <ele>411</ele>
        <time>2013-04-28T06:04:25Z</time>
      </trkpt>
      <trkpt lat="49.98345" lon="5.26396">
        <ele>411</ele>
        <time>2013-04-28T06:04:35Z</time>
      </trkpt>
      <trkpt lat="49.9835" lon="5.26414">
        <ele>412</ele>
        <time>2013-04-28T06:04:45Z</time>
      </trkpt>
      <trkpt lat="49.98352" lon="5.26433">
        <ele>412</ele>
        <time>2013-04-28T06:04:55Z</time>
      </trkpt>
      <trkpt lat="49.98354" lon="5.26452">
        <ele>413</ele>
        <time>2013-04-28T06:05:05Z</time>
      </trkpt>
      <trkpt lat="49.98355" lon="5.26472">
        <ele>413</ele>
        <time>2013-04-28T06:05:15Z</time>
      </trkpt>
      <trkpt lat="49.98357" lon="5.26491">
        <ele>414</ele>
        <time>2013-04-28T06:05:25Z</time>
      </trkpt>
      <trkpt lat="49.9836" lon="5.2651">
        <ele>414</ele>
        <time>2013-04-28T06:05:35Z</time>
      </trkpt>
      <trkpt lat="49.98363" lon="5.26529">
        <ele>414</ele>
        <time>2013-04-28T06:05:45Z</time>
      </trkpt>
      <trkpt lat="49.98365" lon="5.26547">
        <ele>414</ele>
        <time>2013-04-28T06:05:56Z</time>
      </trkpt>
      <trkpt lat="49.98367" lon="5.26566">
        <ele>415</ele>
        <time>2013-04-28T06:06:06Z</time>
      </trkpt>
      <trkpt lat="49.9837" lon="5.26584">
        <ele>415</ele>
        <time>2013-04-28T06:06:16Z</time>
      </trkpt>
      <trkpt lat="49.98372" lon="5.26602">
        <ele>415</ele>
        <time>2013-04-28T06:06:26Z</time>
      </trkpt>
      <trkpt lat="49.98375" lon="5.26622">
        <ele>416</ele>
        <time>2013-04-28T06:06:36Z</time>
      </trkpt>
      <trkpt lat="49.98376" lon="5.26642">
        <ele>416</ele>
        <time>2013-04-28T06:06:46Z</time>
      </trkpt>
      <trkpt lat="49.98378" lon="5.2666">
        <ele>417</ele>
        <time>2013-04-28T06:06:56Z</time>
      </trkpt>
      <trkpt lat="49.98379" lon="5.26674">
        <ele>417</ele>
        <time>2013-04-28T06:07:06Z</time>
      </trkpt>
      <trkpt lat="49.98381" lon="5.26684">
        <ele>417</ele>
        <time>2013-04-28T06:07:16Z</time>
      </trkpt>
      <trkpt lat="49.98381" lon="5.26697">
        <ele>417</ele>
        <time>2013-04-28T06:07:26Z</time>
      </trkpt>
      <trkpt lat="49.98388" lon="5.2673">
        <ele>418</ele>
        <time>2013-04-28T06:07:36Z</time>
      </trkpt>
      <trkpt lat="49.98392" lon="5.26747">
        <ele>419</ele>
        <time>2013-04-28T06:07:46Z</time>
      </trkpt>
      <trkpt lat="49.98392" lon="5.26748">
        <ele>419</ele>
        <time>2013-04-28T06:07:56Z</time>
      </trkpt>
      <trkpt lat="49.98391" lon="5.26753">
        <ele>419</ele>
        <time>2013-04-28T06:08:06Z</time>
      </trkpt>
      <trkpt lat="49.98394" lon="5.26771">
        <ele>419</ele>
        <time>2013-04-28T06:08:17Z</time>
      </trkpt>
      <trkpt lat="49.98396" lon="5.26786">
        <ele>420</ele>
        <time>2013-04-28T06:08:27Z</time>
      </trkpt>
      <trkpt lat="49.98399" lon="5.26801">
        <ele>421</ele>
        <time>2013-04-28T06:08:37Z</time>
      </trkpt>
      <trkpt lat="49.98402" lon="5.26819">
        <ele>422</ele>
        <time>2013-04-28T06:08:47Z</time>
      </trkpt>
      <trkpt lat="49.98404" lon="5.26835">
        <ele>422</ele>
        <time>2013-04-28T06:08:57Z</time>
      </trkpt>
      <trkpt lat="49.98406" lon="5.26851">
        <ele>422</ele>
        <time>2013-04-28T06:09:07Z</time>
      </trkpt>
      <trkpt lat="49.98407" lon="5.26856">
        <ele>423</ele>
        <time>2013-04-28T06:09:17Z</time>
      </trkpt>
      <trkpt lat="49.98409" lon="5.26871">
        <ele>423</ele>
        <time>2013-04-28T06:09:27Z</time>
      </trkpt>
      <trkpt lat="49.98414" lon="5.2689">
        <ele>423</ele>
        <time>2013-04-28T06:09:37Z</time>
      </trkpt>
      <trkpt lat="49.98418" lon="5.26907">
        <ele>425</ele>
        <time>2013-04-28T06:09:47Z</time>
      </trkpt>
      <trkpt lat="49.98421" lon="5.26929">
        <ele>425</ele>
        <time>2013-04-28T06:09:57Z</time>
      </trkpt>
      <trkpt lat="49.98424" lon="5.26951">
        <ele>426</ele>
        <time>2013-04-28T06:10:07Z</time>
      </trkpt>
      <trkpt lat="49.98426" lon="5.26972">
        <ele>427</ele>
        <time>2013-04-28T06:10:18Z</time>
      </trkpt>
      <trkpt lat="49.9843" lon="5.26988">
        <ele>427</ele>
        <time>2013-04-28T06:10:28Z</time>
      </trkpt>
      <trkpt lat="49.98433" lon="5.27006">
        <ele>428</ele>
        <time>2013-04-28T06:10:38Z</time>
      </trkpt>
      <trkpt lat="49.98435" lon="5.27026">
        <ele>429</ele>
        <time>2013-04-28T06:10:48Z</time>
      </trkpt>
      <trkpt lat="49.98438" lon="5.27046">
        <ele>430</ele>
        <time>2013-04-28T06:10:58Z</time>
      </trkpt>
      <trkpt lat="49.98439" lon="5.27066">
        <ele>431</ele>
        <time>2013-04-28T06:11:08Z</time>
      </trkpt>
      <trkpt lat="49.9844" lon="5.27087">
        <ele>432</ele>
        <time>2013-04-28T06:11:18Z</time>
      </trkpt>
      <trkpt lat="49.98441" lon="5.27107">
        <ele>432</ele>
        <time>2013-04-28T06:11:28Z</time>
      </trkpt>
      <trkpt lat="49.98441" lon="5.27127">
        <ele>433</ele>
        <time>2013-04-28T06:11:38Z</time>
      </trkpt>
      <trkpt lat="49.98441" lon="5.27146">
        <ele>434</ele>
        <time>2013-04-28T06:11:48Z</time>
      </trkpt>
      <trkpt lat="49.9844" lon="5.27147">
        <ele>435</ele>
        <time>2013-04-28T06:11:58Z</time>
      </trkpt>
      <trkpt lat="49.98441" lon="5.27147">
        <ele>434</ele>
        <time>2013-04-28T06:12:09Z</time>
      </trkpt>
      <trkpt lat="49.98441" lon="5.27165">
        <ele>435</ele>
        <time>2013-04-28T06:12:19Z</time>
      </trkpt>
      <trkpt lat="49.98442" lon="5.27184">
        <ele>436</ele>
        <time>2013-04-28T06:12:29Z</time>
      </trkpt>
      <trkpt lat="49.98442" lon="5.27204">
        <ele>437</ele>
        <time>2013-04-28T06:12:39Z</time>
      </trkpt>
      <trkpt lat="49.98442" lon="5.2722">
        <ele>438</ele>
        <time>2013-04-28T06:12:49Z</time>
      </trkpt>
      <trkpt lat="49.98442" lon="5.27237">
        <ele>438</ele>
        <time>2013-04-28T06:12:59Z</time>
      </trkpt>
      <trkpt lat="49.98443" lon="5.27254">
        <ele>439</ele>
        <time>2013-04-28T06:13:09Z</time>
      </trkpt>
      <trkpt lat="49.98442" lon="5.27274">
        <ele>439</ele>
        <time>2013-04-28T06:13:19Z</time>
      </trkpt>
      <trkpt lat="49.9844" lon="5.27296">
        <ele>439</ele>
        <time>2013-04-28T06:13:29Z</time>
      </trkpt>
      <trkpt lat="49.98439" lon="5.27317">
        <ele>440</ele>
        <time>2013-04-28T06:13:40Z</time>
      </trkpt>
      <trkpt lat="49.98438" lon="5.27337">
        <ele>440</ele>
        <time>2013-04-28T06:13:50Z</time>
      </trkpt>
      <trkpt lat="49.98437" lon="5.27357">
        <ele>441</ele>
        <time>2013-04-28T06:14:00Z</time>
      </trkpt>
      <trkpt lat="49.98436" lon="5.27377">
        <ele>441</ele>
        <time>2013-04-28T06:14:10Z</time>
      </trkpt>
      <trkpt lat="49.98435" lon="5.27397">
        <ele>441</ele>
        <time>2013-04-28T06:14:20Z</time>
      </trkpt>
      <trkpt lat="49.98434" lon="5.27417">
        <ele>441</ele>
        <time>2013-04-28T06:14:30Z</time>
      </trkpt>
      <trkpt lat="49.98434" lon="5.27437">
        <ele>441</ele>
        <time>2013-04-28T06:14:40Z</time>
      </trkpt>
      <trkpt lat="49.98436" lon="5.27459">
        <ele>441</ele>
        <time>2013-04-28T06:14:50Z</time>
      </trkpt>
      <trkpt lat="49.98439" lon="5.27478">
        <ele>441</ele>
        <time>2013-04-28T06:15:00Z</time>
      </trkpt>
      <trkpt lat="49.98441" lon="5.27496">
        <ele>441</ele>
        <time>2013-04-28T06:15:10Z</time>
      </trkpt>
      <trkpt lat="49.98444" lon="5.27515">
        <ele>441</ele>
        <time>2013-04-28T06:15:20Z</time>
      </trkpt>
      <trkpt lat="49.98446" lon="5.27517">
        <ele>440</ele>
        <time>2013-04-28T06:15:30Z</time>
      </trkpt>
      <trkpt lat="49.98446" lon="5.27518">
        <ele>440</ele>
        <time>2013-04-28T06:15:40Z</time>
      </trkpt>
      <trkpt lat="49.98447" lon="5.2752">
        <ele>440</ele>
        <time>2013-04-28T06:15:50Z</time>
      </trkpt>
      <trkpt lat="49.9845" lon="5.27533">
        <ele>440</ele>
        <time>2013-04-28T06:16:00Z</time>
      </trkpt>
      <trkpt lat="49.98453" lon="5.2755">
        <ele>441</ele>
        <time>2013-04-28T06:16:11Z</time>
      </trkpt>
      <trkpt lat="49.98457" lon="5.27568">
        <ele>440</ele>
        <time>2013-04-28T06:16:21Z</time>
      </trkpt>
      <trkpt lat="49.98461" lon="5.27587">
        <ele>439</ele>
        <time>2013-04-28T06:16:31Z</time>
      </trkpt>
      <trkpt lat="49.98465" lon="5.27608">
        <ele>438</ele>
        <time>2013-04-28T06:16:41Z</time>
      </trkpt>
      <trkpt lat="49.98468" lon="5.27628">
        <ele>438</ele>
        <time>2013-04-28T06:16:51Z</time>
      </trkpt>
      <trkpt lat="49.98471" lon="5.27647">
        <ele>438</ele>
        <time>2013-04-28T06:17:01Z</time>
      </trkpt>
      <trkpt lat="49.98475" lon="5.27661">
        <ele>438</ele>
        <time>2013-04-28T06:17:11Z</time>
      </trkpt>
      <trkpt lat="49.98476" lon="5.27662">
        <ele>438</ele>
        <time>2013-04-28T06:17:21Z</time>
      </trkpt>
      <trkpt lat="49.98479" lon="5.27682">
        <ele>438</ele>
        <time>2013-04-28T06:17:31Z</time>
      </trkpt>
      <trkpt lat="49.98485" lon="5.27707">
        <ele>438</ele>
        <time>2013-04-28T06:17:41Z</time>
      </trkpt>
      <trkpt lat="49.98488" lon="5.27726">
        <ele>438</ele>
        <time>2013-04-28T06:17:51Z</time>
      </trkpt>
      <trkpt lat="49.9849" lon="5.27737">
        <ele>438</ele>
        <time>2013-04-28T06:18:01Z</time>
      </trkpt>
      <trkpt lat="49.98493" lon="5.27756">
        <ele>439</ele>
        <time>2013-04-28T06:18:11Z</time>
      </trkpt>
      <trkpt lat="49.98497" lon="5.27775">
        <ele>439</ele>
        <time>2013-04-28T06:18:22Z</time>
      </trkpt>
      <trkpt lat="49.985" lon="5.27796">
        <ele>439</ele>
        <time>2013-04-28T06:18:32Z</time>
      </trkpt>
      <trkpt lat="49.98503" lon="5.27816">
        <ele>439</ele>
        <time>2013-04-28T06:18:42Z</time>
      </trkpt>
      <trkpt lat="49.98506" lon="5.27836">
        <ele>439</ele>
        <time>2013-04-28T06:18:52Z</time>
      </trkpt>
      <trkpt lat="49.98509" lon="5.27854">
        <ele>440</ele>
        <time>2013-04-28T06:19:02Z</time>
      </trkpt>
      <trkpt lat="49.98512" lon="5.27873">
        <ele>441</ele>
        <time>2013-04-28T06:19:12Z</time>
      </trkpt>
      <trkpt lat="49.98516" lon="5.27891">
        <ele>441</ele>
        <time>2013-04-28T06:19:22Z</time>
      </trkpt>
      <trkpt lat="49.9852" lon="5.27912">
        <ele>442</ele>
        <time>2013-04-28T06:19:32Z</time>
      </trkpt>
      <trkpt lat="49.98523" lon="5.27927">
        <ele>442</ele>
        <time>2013-04-28T06:19:42Z</time>
      </trkpt>
      <trkpt lat="49.9853" lon="5.27942">
        <ele>444</ele>
        <time>2013-04-28T06:19:52Z</time>
      </trkpt>
      <trkpt lat="49.98534" lon="5.27956">
        <ele>445</ele>
        <time>2013-04-28T06:20:02Z</time>
      </trkpt>
      <trkpt lat="49.98539" lon="5.27972">
        <ele>445</ele>
        <time>2013-04-28T06:20:12Z</time>
      </trkpt>
      <trkpt lat="49.98547" lon="5.27985">
        <ele>446</ele>
        <time>2013-04-28T06:20:22Z</time>
      </trkpt>
      <trkpt lat="49.98552" lon="5.27999">
        <ele>447</ele>
        <time>2013-04-28T06:20:32Z</time>
      </trkpt>
      <trkpt lat="49.98559" lon="5.28016">
        <ele>448</ele>
        <time>2013-04-28T06:20:43Z</time>
      </trkpt>
      <trkpt lat="49.98564" lon="5.2803">
        <ele>449</ele>
        <time>2013-04-28T06:20:53Z</time>
      </trkpt>
      <trkpt lat="49.98571" lon="5.28046">
        <ele>450</ele>
        <time>2013-04-28T06:21:03Z</time>
      </trkpt>
      <trkpt lat="49.98577" lon="5.28061">
        <ele>451</ele>
        <time>2013-04-28T06:21:13Z</time>
      </trkpt>
      <trkpt lat="49.98585" lon="5.28076">
        <ele>452</ele>
        <time>2013-04-28T06:21:23Z</time>
      </trkpt>
      <trkpt lat="49.98588" lon="5.28076">
        <ele>451</ele>
        <time>2013-04-28T06:21:33Z</time>
      </trkpt>
      <trkpt lat="49.98589" lon="5.28076">
        <ele>451</ele>
        <time>2013-04-28T06:21:43Z</time>
      </trkpt>
      <trkpt lat="49.98589" lon="5.28074">
        <ele>451</ele>
        <time>2013-04-28T06:21:53Z</time>
      </trkpt>
      <trkpt lat="49.98588" lon="5.28072">
        <ele>451</ele>
        <time>2013-04-28T06:22:03Z</time>
      </trkpt>
      <trkpt lat="49.98589" lon="5.28077">
        <ele>452</ele>
        <time>2013-04-28T06:22:13Z</time>
      </trkpt>
      <trkpt lat="49.98591" lon="5.28083">
        <ele>452</ele>
        <time>2013-04-28T06:22:23Z</time>
      </trkpt>
      <trkpt lat="49.98592" lon="5.28085">
        <ele>451</ele>
        <time>2013-04-28T06:22:33Z</time>
      </trkpt>
      <trkpt lat="49.98593" lon="5.28088">
        <ele>451</ele>
        <time>2013-04-28T06:22:43Z</time>
      </trkpt>
      <trkpt lat="49.98593" lon="5.28091">
        <ele>451</ele>
        <time>2013-04-28T06:22:53Z</time>
      </trkpt>
      <trkpt lat="49.98595" lon="5.28098">
        <ele>452</ele>
        <time>2013-04-28T06:23:03Z</time>
      </trkpt>
      <trkpt lat="49.98596" lon="5.28098">
        <ele>452</ele>
        <time>2013-04-28T06:23:14Z</time>
      </trkpt>
      <trkpt lat="49.98598" lon="5.28101">
        <ele>452</ele>
        <time>2013-04-28T06:23:24Z</time>
      </trkpt>
      <trkpt lat="49.98602" lon="5.28113">
        <ele>452</ele>
        <time>2013-04-28T06:23:34Z</time>
      </trkpt>
      <trkpt lat="49.98603" lon="5.28119">
        <ele>453</ele>
        <time>2013-04-28T06:23:44Z</time>
      </trkpt>
      <trkpt lat="49.9861" lon="5.28138">
        <ele>454</ele>
        <time>2013-04-28T06:23:54Z</time>
      </trkpt>
      <trkpt lat="49.98618" lon="5.28153">
        <ele>455</ele>
        <time>2013-04-28T06:24:04Z</time>
      </trkpt>
      <trkpt lat="49.98625" lon="5.28168">
        <ele>456</ele>
        <time>2013-04-28T06:24:14Z</time>
      </trkpt>
      <trkpt lat="49.98632" lon="5.28184">
        <ele>456</ele>
        <time>2013-04-28T06:24:24Z</time>
      </trkpt>
      <trkpt lat="49.98639" lon="5.28199">
        <ele>456</ele>
        <time>2013-04-28T06:24:34Z</time>
      </trkpt>
      <trkpt lat="49.98645" lon="5.28217">
        <ele>457</ele>
        <time>2013-04-28T06:24:44Z</time>
      </trkpt>
      <trkpt lat="49.98652" lon="5.28233">
        <ele>457</ele>
        <time>2013-04-28T06:24:54Z</time>
      </trkpt>
      <trkpt lat="49.9866" lon="5.2825">
        <ele>458</ele>
        <time>2013-04-28T06:25:04Z</time>
      </trkpt>
      <trkpt lat="49.98671" lon="5.28254">
        <ele>459</ele>
        <time>2013-04-28T06:25:14Z</time>
      </trkpt>
      <trkpt lat="49.9868" lon="5.28247">
        <ele>459</ele>
        <time>2013-04-28T06:25:24Z</time>
      </trkpt>
      <trkpt lat="49.98689" lon="5.28238">
        <ele>459</ele>
        <time>2013-04-28T06:25:34Z</time>
      </trkpt>
      <trkpt lat="49.987" lon="5.28227">
        <ele>459</ele>
        <time>2013-04-28T06:25:44Z</time>
      </trkpt>
      <trkpt lat="49.98711" lon="5.28216">
        <ele>460</ele>
        <time>2013-04-28T06:25:55Z</time>
      </trkpt>
      <trkpt lat="49.98722" lon="5.28207">
        <ele>459</ele>
        <time>2013-04-28T06:26:05Z</time>
      </trkpt>
      <trkpt lat="49.98734" lon="5.28197">
        <ele>459</ele>
        <time>2013-04-28T06:26:15Z</time>
      </trkpt>
      <trkpt lat="49.98746" lon="5.2819">
        <ele>459</ele>
        <time>2013-04-28T06:26:25Z</time>
      </trkpt>
      <trkpt lat="49.98759" lon="5.28181">
        <ele>458</ele>
        <time>2013-04-28T06:26:35Z</time>
      </trkpt>
      <trkpt lat="49.98772" lon="5.28173">
        <ele>457</ele>
        <time>2013-04-28T06:26:45Z</time>
      </trkpt>
      <trkpt lat="49.98785" lon="5.28164">
        <ele>456</ele>
        <time>2013-04-28T06:26:55Z</time>
      </trkpt>
      <trkpt lat="49.98798" lon="5.28156">
        <ele>456</ele>
        <time>2013-04-28T06:27:05Z</time>
      </trkpt>
      <trkpt lat="49.98811" lon="5.28148">
        <ele>456</ele>
        <time>2013-04-28T06:27:15Z</time>
      </trkpt>
      <trkpt lat="49.98824" lon="5.28139">
        <ele>454</ele>
        <time>2013-04-28T06:27:25Z</time>
      </trkpt>
      <trkpt lat="49.98835" lon="5.2813">
        <ele>454</ele>
        <time>2013-04-28T06:27:35Z</time>
      </trkpt>
      <trkpt lat="49.98847" lon="5.28121">
        <ele>453</ele>
        <time>2013-04-28T06:27:45Z</time>
      </trkpt>
      <trkpt lat="49.98859" lon="5.28112">
        <ele>452</ele>
        <time>2013-04-28T06:27:55Z</time>
      </trkpt>
      <trkpt lat="49.98869" lon="5.28103">
        <ele>451</ele>
        <time>2013-04-28T06:28:05Z</time>
      </trkpt>
      <trkpt lat="49.9888" lon="5.28094">
        <ele>450</ele>
        <time>2013-04-28T06:28:16Z</time>
      </trkpt>
      <trkpt lat="49.98892" lon="5.28085">
        <ele>449</ele>
        <time>2013-04-28T06:28:26Z</time>
      </trkpt>
      <trkpt lat="49.98904" lon="5.28076">
        <ele>448</ele>
        <time>2013-04-28T06:28:36Z</time>
      </trkpt>
      <trkpt lat="49.98915" lon="5.28065">
        <ele>447</ele>
        <time>2013-04-28T06:28:46Z</time>
      </trkpt>
      <trkpt lat="49.98928" lon="5.28055">
        <ele>446</ele>
        <time>2013-04-28T06:28:56Z</time>
      </trkpt>
      <trkpt lat="49.9894" lon="5.28045">
        <ele>445</ele>
        <time>2013-04-28T06:29:06Z</time>
      </trkpt>
      <trkpt lat="49.98951" lon="5.28035">
        <ele>444</ele>
        <time>2013-04-28T06:29:16Z</time>
      </trkpt>
      <trkpt lat="49.98963" lon="5.28026">
        <ele>443</ele>
        <time>2013-04-28T06:29:27Z</time>
      </trkpt>
      <trkpt lat="49.98974" lon="5.28018">
        <ele>442</ele>
        <time>2013-04-28T06:29:37Z</time>
      </trkpt>
      <trkpt lat="49.98986" lon="5.28015">
        <ele>441</ele>
        <time>2013-04-28T06:29:47Z</time>
      </trkpt>
      <trkpt lat="49.98996" lon="5.28035">
        <ele>441</ele>
        <time>2013-04-28T06:29:57Z</time>
      </trkpt>
      <trkpt lat="49.991" lon="5.28043">
        <ele>440</ele>
        <time>2013-04-28T06:30:07Z</time>
      </trkpt>
      <trkpt lat="49.99108" lon="5.28025">
        <ele>441</ele>
        <time>2013-04-28T06:30:17Z</time>
      </trkpt>
      <trkpt lat="49.99113" lon="5.28007">
        <ele>441</ele>
        <time>2013-04-28T06:30:28Z</time>
      </trkpt>
      <trkpt lat="49.99116" lon="5.27985">
        <ele>441</ele>
        <time>2013-04-28T06:30:38Z</time>
      </trkpt>
      <trkpt lat="49.99118" lon="5.27965">
        <ele>440</ele>
        <time>2013-04-28T06:30:48Z</time>
      </trkpt>
      <trkpt lat="49.99121" lon="5.27949">
        <ele>440</ele>
        <time>2013-04-28T06:30:58Z</time>
      </trkpt>
      <trkpt lat="49.99121" lon="5.27927">
        <ele>440</ele>
        <time>2013-04-28T06:31:08Z</time>
      </trkpt>
      <trkpt lat="49.99121" lon="5.27905">
        <ele>440</ele>
        <time>2013-04-28T06:31:18Z</time>
      </trkpt>
      <trkpt lat="49.99129" lon="5.27893">
        <ele>440</ele>
        <time>2013-04-28T06:31:28Z</time>
      </trkpt>
      <trkpt lat="49.99138" lon="5.27892">
        <ele>440</ele>
        <time>2013-04-28T06:31:38Z</time>
      </trkpt>
      <trkpt lat="49.99147" lon="5.27891">
        <ele>441</ele>
        <time>2013-04-28T06:31:48Z</time>
      </trkpt>
      <trkpt lat="49.99161" lon="5.27889">
        <ele>443</ele>
        <time>2013-04-28T06:31:59Z</time>
      </trkpt>
      <trkpt lat="49.99175" lon="5.27887">
        <ele>442</ele>
        <time>2013-04-28T06:32:09Z</time>
      </trkpt>
      <trkpt lat="49.99187" lon="5.27886">
        <ele>444</ele>
        <time>2013-04-28T06:32:19Z</time>
      </trkpt>
      <trkpt lat="49.99199" lon="5.27884">
        <ele>445</ele>
        <time>2013-04-28T06:32:29Z</time>
      </trkpt>
      <trkpt lat="49.99213" lon="5.27883">
        <ele>446</ele>
        <time>2013-04-28T06:32:39Z</time>
      </trkpt>
      <trkpt lat="49.99223" lon="5.27882">
        <ele>447</ele>
        <time>2013-04-28T06:32:49Z</time>
      </trkpt>
      <trkpt lat="49.99237" lon="5.2788">
        <ele>449</ele>
        <time>2013-04-28T06:32:59Z</time>
      </trkpt>
      <trkpt lat="49.9925" lon="5.27877">
        <ele>450</ele>
        <time>2013-04-28T06:33:09Z</time>
      </trkpt>
      <trkpt lat="49.9926" lon="5.27874">
        <ele>450</ele>
        <time>2013-04-28T06:33:19Z</time>
      </trkpt>
      <trkpt lat="49.99271" lon="5.27873">
        <ele>451</ele>
        <time>2013-04-28T06:33:29Z</time>
      </trkpt>
      <trkpt lat="49.99283" lon="5.27871">
        <ele>452</ele>
        <time>2013-04-28T06:33:39Z</time>
      </trkpt>
      <trkpt lat="49.99297" lon="5.27867">
        <ele>453</ele>
        <time>2013-04-28T06:33:49Z</time>
      </trkpt>
      <trkpt lat="49.99311" lon="5.27864">
        <ele>453</ele>
        <time>2013-04-28T06:33:59Z</time>
      </trkpt>
      <trkpt lat="49.99324" lon="5.27862">
        <ele>453</ele>
        <time>2013-04-28T06:34:09Z</time>
      </trkpt>
      <trkpt lat="49.99339" lon="5.27863">
        <ele>454</ele>
        <time>2013-04-28T06:34:20Z</time>
      </trkpt>
      <trkpt lat="49.99348" lon="5.27869">
        <ele>454</ele>
        <time>2013-04-28T06:34:30Z</time>
      </trkpt>
      <trkpt lat="49.99349" lon="5.27886">
        <ele>455</ele>
        <time>2013-04-28T06:34:40Z</time>
      </trkpt>
      <trkpt lat="49.99352" lon="5.27906">
        <ele>456</ele>
        <time>2013-04-28T06:34:50Z</time>
      </trkpt>
      <trkpt lat="49.99355" lon="5.27922">
        <ele>457</ele>
        <time>2013-04-28T06:35:00Z</time>
      </trkpt>
      <trkpt lat="49.99355" lon="5.2794">
        <ele>457</ele>
        <time>2013-04-28T06:35:10Z</time>
      </trkpt>
      <trkpt lat="49.99356" lon="5.27956">
        <ele>458</ele>
        <time>2013-04-28T06:35:20Z</time>
      </trkpt>
      <trkpt lat="49.99357" lon="5.27974">
        <ele>459</ele>
        <time>2013-04-28T06:35:30Z</time>
      </trkpt>
      <trkpt lat="49.99358" lon="5.27993">
        <ele>460</ele>
        <time>2013-04-28T06:35:40Z</time>
      </trkpt>
      <trkpt lat="49.99358" lon="5.28015">
        <ele>461</ele>
        <time>2013-04-28T06:35:51Z</time>
      </trkpt>
      <trkpt lat="49.99358" lon="5.28032">
        <ele>461</ele>
        <time>2013-04-28T06:36:01Z</time>
      </trkpt>
      <trkpt lat="49.99359" lon="5.28048">
        <ele>462</ele>
        <time>2013-04-28T06:36:11Z</time>
      </trkpt>
      <trkpt lat="49.9936" lon="5.28067">
        <ele>463</ele>
        <time>2013-04-28T06:36:21Z</time>
      </trkpt>
      <trkpt lat="49.99362" lon="5.28084">
        <ele>463</ele>
        <time>2013-04-28T06:36:31Z</time>
      </trkpt>
      <trkpt lat="49.99363" lon="5.28102">
        <ele>463</ele>
        <time>2013-04-28T06:36:41Z</time>
      </trkpt>
      <trkpt lat="49.99363" lon="5.28124">
        <ele>464</ele>
        <time>2013-04-28T06:36:51Z</time>
      </trkpt>
      <trkpt lat="49.99361" lon="5.28141">
        <ele>464</ele>
        <time>2013-04-28T06:37:01Z</time>
      </trkpt>
      <trkpt lat="49.99361" lon="5.2816">
        <ele>465</ele>
        <time>2013-04-28T06:37:11Z</time>
      </trkpt>
      <trkpt lat="49.99361" lon="5.28179">
        <ele>465</ele>
        <time>2013-04-28T06:37:21Z</time>
      </trkpt>
      <trkpt lat="49.99362" lon="5.28195">
        <ele>466</ele>
        <time>2013-04-28T06:37:31Z</time>
      </trkpt>
      <trkpt lat="49.99365" lon="5.28216">
        <ele>466</ele>
        <time>2013-04-28T06:37:42Z</time>
      </trkpt>
      <trkpt lat="49.99371" lon="5.28233">
        <ele>466</ele>
        <time>2013-04-28T06:37:52Z</time>
      </trkpt>
      <trkpt lat="49.99382" lon="5.2824">
        <ele>467</ele>
        <time>2013-04-28T06:38:02Z</time>
      </trkpt>
      <trkpt lat="49.99393" lon="5.28238">
        <ele>468</ele>
        <time>2013-04-28T06:38:12Z</time>
      </trkpt>
      <trkpt lat="49.99403" lon="5.28236">
        <ele>468</ele>
        <time>2013-04-28T06:38:22Z</time>
      </trkpt>
      <trkpt lat="49.9941" lon="5.28249">
        <ele>469</ele>
        <time>2013-04-28T06:38:32Z</time>
      </trkpt>
      <trkpt lat="49.99413" lon="5.28265">
        <ele>469</ele>
        <time>2013-04-28T06:38:42Z</time>
      </trkpt>
      <trkpt lat="49.99415" lon="5.28286">
        <ele>469</ele>
        <time>2013-04-28T06:38:52Z</time>
      </trkpt>
      <trkpt lat="49.99418" lon="5.28303">
        <ele>469</ele>
        <time>2013-04-28T06:39:02Z</time>
      </trkpt>
      <trkpt lat="49.99419" lon="5.28322">
        <ele>469</ele>
        <time>2013-04-28T06:39:12Z</time>
      </trkpt>
      <trkpt lat="49.9942" lon="5.28338">
        <ele>469</ele>
        <time>2013-04-28T06:39:23Z</time>
      </trkpt>
      <trkpt lat="49.99423" lon="5.28358">
        <ele>468</ele>
        <time>2013-04-28T06:39:33Z</time>
      </trkpt>
      <trkpt lat="49.99423" lon="5.28366">
        <ele>468</ele>
        <time>2013-04-28T06:39:43Z</time>
      </trkpt>
      <trkpt lat="49.99422" lon="5.28367">
        <ele>468</ele>
        <time>2013-04-28T06:39:53Z</time>
      </trkpt>
      <trkpt lat="49.99422" lon="5.28378">
        <ele>468</ele>
        <time>2013-04-28T06:40:03Z</time>
      </trkpt>
      <trkpt lat="49.99424" lon="5.28395">
        <ele>467</ele>
        <time>2013-04-28T06:40:13Z</time>
      </trkpt>
      <trkpt lat="49.99427" lon="5.28413">
        <ele>466</ele>
        <time>2013-04-28T06:40:23Z</time>
      </trkpt>
      <trkpt lat="49.9943" lon="5.28435">
        <ele>466</ele>
        <time>2013-04-28T06:40:33Z</time>
      </trkpt>
      <trkpt lat="49.99432" lon="5.28456">
        <ele>466</ele>
        <time>2013-04-28T06:40:43Z</time>
      </trkpt>
      <trkpt lat="49.99438" lon="5.28475">
        <ele>466</ele>
        <time>2013-04-28T06:40:53Z</time>
      </trkpt>
      <trkpt lat="49.99443" lon="5.28492">
        <ele>465</ele>
        <time>2013-04-28T06:41:03Z</time>
      </trkpt>
      <trkpt lat="49.99442" lon="5.28512">
        <ele>465</ele>
        <time>2013-04-28T06:41:13Z</time>
      </trkpt>
      <trkpt lat="49.99444" lon="5.28532">
        <ele>465</ele>
        <time>2013-04-28T06:41:23Z</time>
      </trkpt>
      <trkpt lat="49.99447" lon="5.28553">
        <ele>464</ele>
        <time>2013-04-28T06:41:33Z</time>
      </trkpt>
      <trkpt lat="49.99449" lon="5.28574">
        <ele>464</ele>
        <time>2013-04-28T06:41:43Z</time>
      </trkpt>
      <trkpt lat="49.9945" lon="5.28595">
        <ele>463</ele>
        <time>2013-04-28T06:41:53Z</time>
      </trkpt>
      <trkpt lat="49.99453" lon="5.28617">
        <ele>463</ele>
        <time>2013-04-28T06:42:04Z</time>
      </trkpt>
      <trkpt lat="49.99455" lon="5.28634">
        <ele>462</ele>
        <time>2013-04-28T06:42:14Z</time>
      </trkpt>
      <trkpt lat="49.99457" lon="5.28652">
        <ele>462</ele>
        <time>2013-04-28T06:42:24Z</time>
      </trkpt>
      <trkpt lat="49.99451" lon="5.28661">
        <ele>461</ele>
        <time>2013-04-28T06:42:34Z</time>
      </trkpt>
      <trkpt lat="49.9944" lon="5.28672">
        <ele>461</ele>
        <time>2013-04-28T06:42:44Z</time>
      </trkpt>
      <trkpt lat="49.99428" lon="5.28678">
        <ele>462</ele>
        <time>2013-04-28T06:42:54Z</time>
      </trkpt>
      <trkpt lat="49.99417" lon="5.28681">
        <ele>462</ele>
        <time>2013-04-28T06:43:04Z</time>
      </trkpt>
      <trkpt lat="49.99408" lon="5.28688">
        <ele>462</ele>
        <time>2013-04-28T06:43:14Z</time>
      </trkpt>
      <trkpt lat="49.99402" lon="5.28702">
        <ele>462</ele>
        <time>2013-04-28T06:43:24Z</time>
      </trkpt>
      <trkpt lat="49.99399" lon="5.28717">
        <ele>462</ele>
        <time>2013-04-28T06:43:34Z</time>
      </trkpt>
      <trkpt lat="49.99397" lon="5.28733">
        <ele>461</ele>
        <time>2013-04-28T06:43:44Z</time>
      </trkpt>
      <trkpt lat="49.99395" lon="5.2875">
        <ele>461</ele>
        <time>2013-04-28T06:43:54Z</time>
      </trkpt>
      <trkpt lat="49.99395" lon="5.28766">
        <ele>461</ele>
        <time>2013-04-28T06:44:04Z</time>
      </trkpt>
      <trkpt lat="49.99394" lon="5.28783">
        <ele>461</ele>
        <time>2013-04-28T06:44:14Z</time>
      </trkpt>
      <trkpt lat="49.99393" lon="5.28801">
        <ele>460</ele>
        <time>2013-04-28T06:44:24Z</time>
      </trkpt>
      <trkpt lat="49.9939" lon="5.2882">
        <ele>460</ele>
        <time>2013-04-28T06:44:34Z</time>
      </trkpt>
      <trkpt lat="49.99379" lon="5.28837">
        <ele>460</ele>
        <time>2013-04-28T06:44:44Z</time>
      </trkpt>
      <trkpt lat="49.99367" lon="5.28852">
        <ele>460</ele>
        <time>2013-04-28T06:44:54Z</time>
      </trkpt>
      <trkpt lat="49.99355" lon="5.28864">
        <ele>460</ele>
        <time>2013-04-28T06:45:04Z</time>
      </trkpt>
      <trkpt lat="49.99342" lon="5.28873">
        <ele>460</ele>
        <time>2013-04-28T06:45:14Z</time>
      </trkpt>
      <trkpt lat="49.99331" lon="5.28884">
        <ele>460</ele>
        <time>2013-04-28T06:45:24Z</time>
      </trkpt>
      <trkpt lat="49.99319" lon="5.28893">
        <ele>460</ele>
        <time>2013-04-28T06:45:35Z</time>
      </trkpt>
      <trkpt lat="49.99313" lon="5.28899">
        <ele>461</ele>
        <time>2013-04-28T06:45:45Z</time>
      </trkpt>
      <trkpt lat="49.99302" lon="5.28907">
        <ele>462</ele>
        <time>2013-04-28T06:45:55Z</time>
      </trkpt>
      <trkpt lat="49.99289" lon="5.2891">
        <ele>462</ele>
        <time>2013-04-28T06:46:05Z</time>
      </trkpt>
      <trkpt lat="49.9928" lon="5.28908">
        <ele>463</ele>
        <time>2013-04-28T06:46:15Z</time>
      </trkpt>
      <trkpt lat="49.9927" lon="5.28913">
        <ele>463</ele>
        <time>2013-04-28T06:46:25Z</time>
      </trkpt>
      <trkpt lat="49.99259" lon="5.28917">
        <ele>463</ele>
        <time>2013-04-28T06:46:35Z</time>
      </trkpt>
      <trkpt lat="49.99246" lon="5.28924">
        <ele>464</ele>
        <time>2013-04-28T06:46:45Z</time>
      </trkpt>
      <trkpt lat="49.99235" lon="5.2893">
        <ele>464</ele>
        <time>2013-04-28T06:46:55Z</time>
      </trkpt>
      <trkpt lat="49.99223" lon="5.28937">
        <ele>465</ele>
        <time>2013-04-28T06:47:05Z</time>
      </trkpt>
      <trkpt lat="49.99213" lon="5.28942">
        <ele>466</ele>
        <time>2013-04-28T06:47:15Z</time>
      </trkpt>
      <trkpt lat="49.99202" lon="5.28948">
        <ele>466</ele>
        <time>2013-04-28T06:47:25Z</time>
      </trkpt>
      <trkpt lat="49.99192" lon="5.28954">
        <ele>466</ele>
        <time>2013-04-28T06:47:35Z</time>
      </trkpt>
      <trkpt lat="49.99181" lon="5.28961">
        <ele>467</ele>
        <time>2013-04-28T06:47:45Z</time>
      </trkpt>
      <trkpt lat="49.99171" lon="5.28966">
        <ele>468</ele>
        <time>2013-04-28T06:47:55Z</time>
      </trkpt>
      <trkpt lat="49.99158" lon="5.28973">
        <ele>469</ele>
        <time>2013-04-28T06:48:06Z</time>
      </trkpt>
      <trkpt lat="49.99147" lon="5.28978">
        <ele>469</ele>
        <time>2013-04-28T06:48:16Z</time>
      </trkpt>
      <trkpt lat="49.99135" lon="5.28984">
        <ele>470</ele>
        <time>2013-04-28T06:48:26Z</time>
      </trkpt>
      <trkpt lat="49.99126" lon="5.28989">
        <ele>471</ele>
        <time>2013-04-28T06:48:36Z</time>
      </trkpt>
      <trkpt lat="49.99117" lon="5.28994">
        <ele>471</ele>
        <time>2013-04-28T06:48:46Z</time>
      </trkpt>
      <trkpt lat="49.99106" lon="5.28998">
        <ele>472</ele>
        <time>2013-04-28T06:48:56Z</time>
      </trkpt>
      <trkpt lat="49.99095" lon="5.29003">
        <ele>472</ele>
        <time>2013-04-28T06:49:06Z</time>
      </trkpt>
      <trkpt lat="49.99084" lon="5.29008">
        <ele>473</ele>
        <time>2013-04-28T06:49:16Z</time>
      </trkpt>
      <trkpt lat="49.99072" lon="5.29016">
        <ele>474</ele>
        <time>2013-04-28T06:49:26Z</time>
      </trkpt>
      <trkpt lat="49.99061" lon="5.29023">
        <ele>474</ele>
        <time>2013-04-28T06:49:36Z</time>
      </trkpt>
      <trkpt lat="49.99053" lon="5.29027">
        <ele>474</ele>
        <time>2013-04-28T06:49:47Z</time>
      </trkpt>
      <trkpt lat="49.99053" lon="5.29027">
        <ele>474</ele>
        <time>2013-04-28T06:49:57Z</time>
      </trkpt>
      <trkpt lat="49.99046" lon="5.29028">
        <ele>474</ele>
        <time>2013-04-28T06:50:07Z</time>
      </trkpt>
      <trkpt lat="49.99036" lon="5.29032">
        <ele>475</ele>
        <time>2013-04-28T06:50:17Z</time>
      </trkpt>
      <trkpt lat="49.99026" lon="5.29035">
        <ele>476</ele>
        <time>2013-04-28T06:50:27Z</time>
      </trkpt>
      <trkpt lat="49.9902" lon="5.29037">
        <ele>476</ele>
        <time>2013-04-28T06:50:37Z</time>
      </trkpt>
      <trkpt lat="49.99009" lon="5.2904">
        <ele>477</ele>
        <time>2013-04-28T06:50:47Z</time>
      </trkpt>
      <trkpt lat="49.98996" lon="5.29043">
        <ele>477</ele>
        <time>2013-04-28T06:50:57Z</time>
      </trkpt>
      <trkpt lat="49.98983" lon="5.29047">
        <ele>478</ele>
        <time>2013-04-28T06:51:07Z</time>
      </trkpt>
      <trkpt lat="49.98972" lon="5.29053">
        <ele>479</ele>
        <time>2013-04-28T06:51:17Z</time>
      </trkpt>
      <trkpt lat="49.98965" lon="5.29058">
        <ele>479</ele>
        <time>2013-04-28T06:51:27Z</time>
      </trkpt>
      <trkpt lat="49.98956" lon="5.29063">
        <ele>480</ele>
        <time>2013-04-28T06:51:37Z</time>
      </trkpt>
      <trkpt lat="49.98946" lon="5.29072">
        <ele>481</ele>
        <time>2013-04-28T06:51:47Z</time>
      </trkpt>
      <trkpt lat="49.98938" lon="5.29087">
        <ele>481</ele>
        <time>2013-04-28T06:51:58Z</time>
      </trkpt>
      <trkpt lat="49.98932" lon="5.29104">
        <ele>482</ele>
        <time>2013-04-28T06:52:08Z</time>
      </trkpt>
      <trkpt lat="49.98928" lon="5.29122">
        <ele>482</ele>
        <time>2013-04-28T06:52:18Z</time>
      </trkpt>
      <trkpt lat="49.98925" lon="5.29137">
        <ele>483</ele>
        <time>2013-04-28T06:52:28Z</time>
      </trkpt>
      <trkpt lat="49.98922" lon="5.29148">
        <ele>484</ele>
        <time>2013-04-28T06:52:38Z</time>
      </trkpt>
      <trkpt lat="49.98917" lon="5.29169">
        <ele>484</ele>
        <time>2013-04-28T06:52:48Z</time>
      </trkpt>
      <trkpt lat="49.98916" lon="5.29185">
        <ele>485</ele>
        <time>2013-04-28T06:52:58Z</time>
      </trkpt>
      <trkpt lat="49.98914" lon="5.29201">
        <ele>486</ele>
        <time>2013-04-28T06:53:08Z</time>
      </trkpt>
      <trkpt lat="49.98915" lon="5.29218">
        <ele>486</ele>
        <time>2013-04-28T06:53:18Z</time>
      </trkpt>
      <trkpt lat="49.98913" lon="5.29238">
        <ele>486</ele>
        <time>2013-04-28T06:53:28Z</time>
      </trkpt>
      <trkpt lat="49.98912" lon="5.29255">
        <ele>487</ele>
        <time>2013-04-28T06:53:38Z</time>
      </trkpt>
      <trkpt lat="49.98916" lon="5.29263">
        <ele>486</ele>
        <time>2013-04-28T06:53:48Z</time>
      </trkpt>
      <trkpt lat="49.98922" lon="5.29263">
        <ele>486</ele>
        <time>2013-04-28T06:53:58Z</time>
      </trkpt>
      <trkpt lat="49.98925" lon="5.29263">
        <ele>486</ele>
        <time>2013-04-28T06:54:08Z</time>
      </trkpt>
      <trkpt lat="49.98929" lon="5.29264">
        <ele>486</ele>
        <time>2013-04-28T06:54:18Z</time>
      </trkpt>
      <trkpt lat="49.98932" lon="5.29262">
        <ele>486</ele>
        <time>2013-04-28T06:54:29Z</time>
      </trkpt>
      <trkpt lat="49.98932" lon="5.29259">
        <ele>486</ele>
        <time>2013-04-28T06:54:39Z</time>
      </trkpt>
      <trkpt lat="49.98927" lon="5.29265">
        <ele>487</ele>
        <time>2013-04-28T06:54:49Z</time>
      </trkpt>
      <trkpt lat="49.98921" lon="5.29282">
        <ele>487</ele>
        <time>2013-04-28T06:54:59Z</time>
      </trkpt>
      <trkpt lat="49.98909" lon="5.29294">
        <ele>487</ele>
        <time>2013-04-28T06:55:09Z</time>
      </trkpt>
      <trkpt lat="49.98896" lon="5.29307">
        <ele>488</ele>
        <time>2013-04-28T06:55:19Z</time>
      </trkpt>
      <trkpt lat="49.98886" lon="5.29319">
        <ele>488</ele>
        <time>2013-04-28T06:55:29Z</time>
      </trkpt>
      <trkpt lat="49.98883" lon="5.29325">
        <ele>488</ele>
        <time>2013-04-28T06:55:39Z</time>
      </trkpt>
      <trkpt lat="49.98883" lon="5.29325">
        <ele>488</ele>
        <time>2013-04-28T06:55:49Z</time>
      </trkpt>
      <trkpt lat="49.98882" lon="5.29325">
        <ele>488</ele>
        <time>2013-04-28T06:55:59Z</time>
      </trkpt>
      <trkpt lat="49.98883" lon="5.29324">
        <ele>488</ele>
        <time>2013-04-28T06:56:10Z</time>
      </trkpt>
      <trkpt lat="49.98883" lon="5.29321">
        <ele>489</ele>
        <time>2013-04-28T06:56:20Z</time>
      </trkpt>
      <trkpt lat="49.98881" lon="5.29318">
        <ele>488</ele>
        <time>2013-04-28T06:56:30Z</time>
      </trkpt>
      <trkpt lat="49.9888" lon="5.29317">
        <ele>489</ele>
        <time>2013-04-28T06:56:40Z</time>
      </trkpt>
      <trkpt lat="49.98879" lon="5.29314">
        <ele>489</ele>
        <time>2013-04-28T06:56:50Z</time>
      </trkpt>
      <trkpt lat="49.98879" lon="5.29313">
        <ele>488</ele>
        <time>2013-04-28T06:57:00Z</time>
      </trkpt>
      <trkpt lat="49.98877" lon="5.29312">
        <ele>489</ele>
        <time>2013-04-28T06:57:10Z</time>
      </trkpt>
      <trkpt lat="49.98878" lon="5.29312">
        <ele>488</ele>
        <time>2013-04-28T06:57:20Z</time>
      </trkpt>
      <trkpt lat="49.98879" lon="5.29313">
        <ele>489</ele>
        <time>2013-04-28T06:57:30Z</time>
      </trkpt>
      <trkpt lat="49.98879" lon="5.29313">
        <ele>489</ele>
        <time>2013-04-28T06:57:40Z</time>
      </trkpt>
      <trkpt lat="49.98878" lon="5.29314">
        <ele>488</ele>
        <time>2013-04-28T06:57:50Z</time>
      </trkpt>
      <trkpt lat="49.98879" lon="5.29312">
        <ele>487</ele>
        <time>2013-04-28T06:58:00Z</time>
      </trkpt>
      <trkpt lat="49.98878" lon="5.29312">
        <ele>488</ele>
        <time>2013-04-28T06:58:10Z</time>
      </trkpt>
      <trkpt lat="49.98877" lon="5.29313">
        <ele>487</ele>
        <time>2013-04-28T06:58:20Z</time>
      </trkpt>
      <trkpt lat="49.98875" lon="5.29315">
        <ele>488</ele>
        <time>2013-04-28T06:58:30Z</time>
      </trkpt>
      <trkpt lat="49.98873" lon="5.29316">
        <ele>488</ele>
        <time>2013-04-28T06:58:40Z</time>
      </trkpt>
      <trkpt lat="49.98871" lon="5.29315">
        <ele>488</ele>
        <time>2013-04-28T06:58:50Z</time>
      </trkpt>
      <trkpt lat="49.98871" lon="5.29316">
        <ele>488</ele>
        <time>2013-04-28T06:59:00Z</time>
      </trkpt>
      <trkpt lat="49.98872" lon="5.29316">
        <ele>488</ele>
        <time>2013-04-28T06:59:10Z</time>
      </trkpt>
      <trkpt lat="49.9887" lon="5.29319">
        <ele>489</ele>
        <time>2013-04-28T06:59:20Z</time>
      </trkpt>
      <trkpt lat="49.98865" lon="5.29328">
        <ele>489</ele>
        <time>2013-04-28T06:59:30Z</time>
      </trkpt>
      <trkpt lat="49.98858" lon="5.29342">
        <ele>489</ele>
        <time>2013-04-28T06:59:40Z</time>
      </trkpt>
      <trkpt lat="49.98849" lon="5.29359">
        <ele>490</ele>
        <time>2013-04-28T06:59:50Z</time>
      </trkpt>
      <trkpt lat="49.98841" lon="5.29377">
        <ele>490</ele>
        <time>2013-04-28T07:00:00Z</time>
      </trkpt>
      <trkpt lat="49.98836" lon="5.29396">
        <ele>491</ele>
        <time>2013-04-28T07:00:11Z</time>
      </trkpt>
      <trkpt lat="49.98838" lon="5.29415">
        <ele>490</ele>
        <time>2013-04-28T07:00:21Z</time>
      </trkpt>
      <trkpt lat="49.9884" lon="5.29434">
        <ele>491</ele>
        <time>2013-04-28T07:00:31Z</time>
      </trkpt>
      <trkpt lat="49.98839" lon="5.29453">
        <ele>491</ele>
        <time>2013-04-28T07:00:41Z</time>
      </trkpt>
      <trkpt lat="49.98839" lon="5.29468">
        <ele>491</ele>
        <time>2013-04-28T07:00:51Z</time>
      </trkpt>
      <trkpt lat="49.98838" lon="5.29487">
        <ele>491</ele>
        <time>2013-04-28T07:01:01Z</time>
      </trkpt>
      <trkpt lat="49.98841" lon="5.29505">
        <ele>491</ele>
        <time>2013-04-28T07:01:11Z</time>
      </trkpt>
      <trkpt lat="49.98843" lon="5.29522">
        <ele>491</ele>
        <time>2013-04-28T07:01:21Z</time>
      </trkpt>
      <trkpt lat="49.98845" lon="5.2954">
        <ele>491</ele>
        <time>2013-04-28T07:01:31Z</time>
      </trkpt>
      <trkpt lat="49.98852" lon="5.29559">
        <ele>491</ele>
        <time>2013-04-28T07:01:41Z</time>
      </trkpt>
      <trkpt lat="49.98861" lon="5.29577">
        <ele>490</ele>
        <time>2013-04-28T07:01:51Z</time>
      </trkpt>
      <trkpt lat="49.98867" lon="5.29593">
        <ele>490</ele>
        <time>2013-04-28T07:02:01Z</time>
      </trkpt>
      <trkpt lat="49.98869" lon="5.29611">
        <ele>489</ele>
        <time>2013-04-28T07:02:11Z</time>
      </trkpt>
      <trkpt lat="49.98871" lon="5.29635">
        <ele>489</ele>
        <time>2013-04-28T07:02:22Z</time>
      </trkpt>
      <trkpt lat="49.98869" lon="5.29666">
        <ele>487</ele>
        <time>2013-04-28T07:02:32Z</time>
      </trkpt>
      <trkpt lat="49.98872" lon="5.29685">
        <ele>487</ele>
        <time>2013-04-28T07:02:42Z</time>
      </trkpt>
      <trkpt lat="49.9887" lon="5.29706">
        <ele>486</ele>
        <time>2013-04-28T07:02:52Z</time>
      </trkpt>
      <trkpt lat="49.98869" lon="5.29727">
        <ele>485</ele>
        <time>2013-04-28T07:03:02Z</time>
      </trkpt>
      <trkpt lat="49.98872" lon="5.29741">
        <ele>484</ele>
        <time>2013-04-28T07:03:12Z</time>
      </trkpt>
      <trkpt lat="49.98872" lon="5.29761">
        <ele>483</ele>
        <time>2013-04-28T07:03:22Z</time>
      </trkpt>
      <trkpt lat="49.9887" lon="5.29789">
        <ele>481</ele>
        <time>2013-04-28T07:03:32Z</time>
      </trkpt>
      <trkpt lat="49.98869" lon="5.29807">
        <ele>479</ele>
        <time>2013-04-28T07:03:42Z</time>
      </trkpt>
      <trkpt lat="49.98869" lon="5.29827">
        <ele>479</ele>
        <time>2013-04-28T07:03:53Z</time>
      </trkpt>
      <trkpt lat="49.98867" lon="5.29849">
        <ele>477</ele>
        <time>2013-04-28T07:04:03Z</time>
      </trkpt>
      <trkpt lat="49.98864" lon="5.29871">
        <ele>476</ele>
        <time>2013-04-28T07:04:13Z</time>
      </trkpt>
      <trkpt lat="49.98861" lon="5.29894">
        <ele>474</ele>
        <time>2013-04-28T07:04:23Z</time>
      </trkpt>
      <trkpt lat="49.98863" lon="5.29915">
        <ele>473</ele>
        <time>2013-04-28T07:04:33Z</time>
      </trkpt>
      <trkpt lat="49.98861" lon="5.29934">
        <ele>471</ele>
        <time>2013-04-28T07:04:43Z</time>
      </trkpt>
      <trkpt lat="49.98859" lon="5.29954">
        <ele>469</ele>
        <time>2013-04-28T07:04:53Z</time>
      </trkpt>
      <trkpt lat="49.98856" lon="5.29974">
        <ele>467</ele>
        <time>2013-04-28T07:05:03Z</time>
      </trkpt>
      <trkpt lat="49.98856" lon="5.29995">
        <ele>466</ele>
        <time>2013-04-28T07:05:13Z</time>
      </trkpt>
      <trkpt lat="49.98855" lon="5.30013">
        <ele>464</ele>
        <time>2013-04-28T07:05:23Z</time>
      </trkpt>
      <trkpt lat="49.98851" lon="5.30036">
        <ele>463</ele>
        <time>2013-04-28T07:05:34Z</time>
      </trkpt>
      <trkpt lat="49.98851" lon="5.30055">
        <ele>461</ele>
        <time>2013-04-28T07:05:44Z</time>
      </trkpt>
      <trkpt lat="49.98851" lon="5.30077">
        <ele>460</ele>
        <time>2013-04-28T07:05:54Z</time>
      </trkpt>
      <trkpt lat="49.98848" lon="5.30093">
        <ele>458</ele>
        <time>2013-04-28T07:06:04Z</time>
      </trkpt>
      <trkpt lat="49.98843" lon="5.30107">
        <ele>457</ele>
        <time>2013-04-28T07:06:14Z</time>
      </trkpt>
      <trkpt lat="49.98837" lon="5.30119">
        <ele>456</ele>
        <time>2013-04-28T07:06:24Z</time>
      </trkpt>
      <trkpt lat="49.98828" lon="5.3014">
        <ele>455</ele>
        <time>2013-04-28T07:06:34Z</time>
      </trkpt>
      <trkpt lat="49.98826" lon="5.30146">
        <ele>454</ele>
        <time>2013-04-28T07:06:44Z</time>
      </trkpt>
      <trkpt lat="49.98624" lon="5.30723">
        <ele>426</ele>
        <time>2013-04-28T08:12:38Z</time>
      </trkpt>
      <trkpt lat="49.98619" lon="5.30743">
        <ele>426</ele>
        <time>2013-04-28T08:12:48Z</time>
      </trkpt>
      <trkpt lat="49.98615" lon="5.30759">
        <ele>426</ele>
        <time>2013-04-28T08:12:58Z</time>
      </trkpt>
      <trkpt lat="49.98609" lon="5.30778">
        <ele>426</ele>
        <time>2013-04-28T08:13:08Z</time>
      </trkpt>
      <trkpt lat="49.98603" lon="5.30795">
        <ele>425</ele>
        <time>2013-04-28T08:13:18Z</time>
      </trkpt>
      <trkpt lat="49.98598" lon="5.30815">
        <ele>425</ele>
        <time>2013-04-28T08:13:28Z</time>
      </trkpt>
      <trkpt lat="49.98595" lon="5.30832">
        <ele>424</ele>
        <time>2013-04-28T08:13:38Z</time>
      </trkpt>
      <trkpt lat="49.9859" lon="5.30851">
        <ele>423</ele>
        <time>2013-04-28T08:13:48Z</time>
      </trkpt>
      <trkpt lat="49.98585" lon="5.30869">
        <ele>423</ele>
        <time>2013-04-28T08:13:58Z</time>
      </trkpt>
      <trkpt lat="49.98579" lon="5.30891">
        <ele>422</ele>
        <time>2013-04-28T08:14:08Z</time>
      </trkpt>
      <trkpt lat="49.98574" lon="5.3091">
        <ele>421</ele>
        <time>2013-04-28T08:14:18Z</time>
      </trkpt>
      <trkpt lat="49.98572" lon="5.30926">
        <ele>419</ele>
        <time>2013-04-28T08:14:29Z</time>
      </trkpt>
      <trkpt lat="49.9857" lon="5.30944">
        <ele>418</ele>
        <time>2013-04-28T08:14:39Z</time>
      </trkpt>
      <trkpt lat="49.98566" lon="5.30963">
        <ele>417</ele>
        <time>2013-04-28T08:14:49Z</time>
      </trkpt>
      <trkpt lat="49.98559" lon="5.30981">
        <ele>416</ele>
        <time>2013-04-28T08:14:59Z</time>
      </trkpt>
      <trkpt lat="49.98553" lon="5.30995">
        <ele>415</ele>
        <time>2013-04-28T08:15:09Z</time>
      </trkpt>
      <trkpt lat="49.98547" lon="5.31013">
        <ele>413</ele>
        <time>2013-04-28T08:15:19Z</time>
      </trkpt>
      <trkpt lat="49.98542" lon="5.31034">
        <ele>412</ele>
        <time>2013-04-28T08:15:29Z</time>
      </trkpt>
      <trkpt lat="49.98536" lon="5.31051">
        <ele>411</ele>
        <time>2013-04-28T08:15:40Z</time>
      </trkpt>
      <trkpt lat="49.98532" lon="5.31056">
        <ele>411</ele>
        <time>2013-04-28T08:15:50Z</time>
      </trkpt>
      <trkpt lat="49.98531" lon="5.31055">
        <ele>410</ele>
        <time>2013-04-28T08:16:00Z</time>
      </trkpt>
      <trkpt lat="49.98528" lon="5.31056">
        <ele>410</ele>
        <time>2013-04-28T08:16:10Z</time>
      </trkpt>
      <trkpt lat="49.98525" lon="5.31061">
        <ele>410</ele>
        <time>2013-04-28T08:16:20Z</time>
      </trkpt>
      <trkpt lat="49.98523" lon="5.31064">
        <ele>410</ele>
        <time>2013-04-28T08:16:30Z</time>
      </trkpt>
      <trkpt lat="49.98521" lon="5.31072">
        <ele>410</ele>
        <time>2013-04-28T08:16:40Z</time>
      </trkpt>
      <trkpt lat="49.98518" lon="5.31088">
        <ele>408</ele>
        <time>2013-04-28T08:16:50Z</time>
      </trkpt>
      <trkpt lat="49.98515" lon="5.31102">
        <ele>407</ele>
        <time>2013-04-28T08:17:01Z</time>
      </trkpt>
      <trkpt lat="49.98511" lon="5.3112">
        <ele>406</ele>
        <time>2013-04-28T08:17:11Z</time>
      </trkpt>
      <trkpt lat="49.98506" lon="5.31142">
        <ele>406</ele>
        <time>2013-04-28T08:17:21Z</time>
      </trkpt>
      <trkpt lat="49.98497" lon="5.31155">
        <ele>406</ele>
        <time>2013-04-28T08:17:31Z</time>
      </trkpt>
      <trkpt lat="49.98481" lon="5.31163">
        <ele>407</ele>
        <time>2013-04-28T08:17:41Z</time>
      </trkpt>
      <trkpt lat="49.98466" lon="5.31167">
        <ele>409</ele>
        <time>2013-04-28T08:17:51Z</time>
      </trkpt>
      <trkpt lat="49.98453" lon="5.31171">
        <ele>410</ele>
        <time>2013-04-28T08:18:01Z</time>
      </trkpt>
      <trkpt lat="49.98439" lon="5.31177">
        <ele>411</ele>
        <time>2013-04-28T08:18:11Z</time>
      </trkpt>
      <trkpt lat="49.98427" lon="5.31179">
        <ele>412</ele>
        <time>2013-04-28T08:18:21Z</time>
      </trkpt>
      <trkpt lat="49.98413" lon="5.31182">
        <ele>413</ele>
        <time>2013-04-28T08:18:31Z</time>
      </trkpt>
      <trkpt lat="49.98399" lon="5.31185">
        <ele>414</ele>
        <time>2013-04-28T08:18:41Z</time>
      </trkpt>
      <trkpt lat="49.98387" lon="5.31188">
        <ele>416</ele>
        <time>2013-04-28T08:18:51Z</time>
      </trkpt>
      <trkpt lat="49.98376" lon="5.31188">
        <ele>416</ele>
        <time>2013-04-28T08:19:01Z</time>
      </trkpt>
      <trkpt lat="49.98367" lon="5.31188">
        <ele>418</ele>
        <time>2013-04-28T08:19:11Z</time>
      </trkpt>
      <trkpt lat="49.98357" lon="5.31188">
        <ele>419</ele>
        <time>2013-04-28T08:19:21Z</time>
      </trkpt>
      <trkpt lat="49.98347" lon="5.31189">
        <ele>420</ele>
        <time>2013-04-28T08:19:31Z</time>
      </trkpt>
      <trkpt lat="49.98336" lon="5.3119">
        <ele>422</ele>
        <time>2013-04-28T08:19:41Z</time>
      </trkpt>
      <trkpt lat="49.98326" lon="5.31193">
        <ele>422</ele>
        <time>2013-04-28T08:19:51Z</time>
      </trkpt>
      <trkpt lat="49.98314" lon="5.31196">
        <ele>423</ele>
        <time>2013-04-28T08:20:01Z</time>
      </trkpt>
      <trkpt lat="49.98303" lon="5.31198">
        <ele>424</ele>
        <time>2013-04-28T08:20:11Z</time>
      </trkpt>
      <trkpt lat="49.98292" lon="5.31201">
        <ele>425</ele>
        <time>2013-04-28T08:20:22Z</time>
      </trkpt>
      <trkpt lat="49.98281" lon="5.31204">
        <ele>426</ele>
        <time>2013-04-28T08:20:32Z</time>
      </trkpt>
      <trkpt lat="49.9827" lon="5.31208">
        <ele>427</ele>
        <time>2013-04-28T08:20:42Z</time>
      </trkpt>
      <trkpt lat="49.98261" lon="5.3121">
        <ele>428</ele>
        <time>2013-04-28T08:20:52Z</time>
      </trkpt>
      <trkpt lat="49.98249" lon="5.31214">
        <ele>429</ele>
        <time>2013-04-28T08:21:02Z</time>
      </trkpt>
      <trkpt lat="49.98237" lon="5.31218">
        <ele>430</ele>
        <time>2013-04-28T08:21:12Z</time>
      </trkpt>
      <trkpt lat="49.98225" lon="5.31223">
        <ele>431</ele>
        <time>2013-04-28T08:21:22Z</time>
      </trkpt>
      <trkpt lat="49.98214" lon="5.31231">
        <ele>431</ele>
        <time>2013-04-28T08:21:32Z</time>
      </trkpt>
      <trkpt lat="49.98204" lon="5.31239">
        <ele>432</ele>
        <time>2013-04-28T08:21:42Z</time>
      </trkpt>
      <trkpt lat="49.98195" lon="5.31247">
        <ele>433</ele>
        <time>2013-04-28T08:21:52Z</time>
      </trkpt>
      <trkpt lat="49.98185" lon="5.31258">
        <ele>434</ele>
        <time>2013-04-28T08:22:02Z</time>
      </trkpt>
      <trkpt lat="49.98176" lon="5.31268">
        <ele>434</ele>
        <time>2013-04-28T08:22:12Z</time>
      </trkpt>
      <trkpt lat="49.98166" lon="5.31279">
        <ele>435</ele>
        <time>2013-04-28T08:22:22Z</time>
      </trkpt>
      <trkpt lat="49.98157" lon="5.31289">
        <ele>435</ele>
        <time>2013-04-28T08:22:33Z</time>
      </trkpt>
      <trkpt lat="49.98151" lon="5.313">
        <ele>436</ele>
        <time>2013-04-28T08:22:43Z</time>
      </trkpt>
      <trkpt lat="49.98143" lon="5.31313">
        <ele>437</ele>
        <time>2013-04-28T08:22:53Z</time>
      </trkpt>
      <trkpt lat="49.98135" lon="5.31324">
        <ele>437</ele>
        <time>2013-04-28T08:23:03Z</time>
      </trkpt>
      <trkpt lat="49.98125" lon="5.31333">
        <ele>438</ele>
        <time>2013-04-28T08:23:13Z</time>
      </trkpt>
      <trkpt lat="49.98116" lon="5.31343">
        <ele>438</ele>
        <time>2013-04-28T08:23:23Z</time>
      </trkpt>
      <trkpt lat="49.98107" lon="5.31352">
        <ele>439</ele>
        <time>2013-04-28T08:23:33Z</time>
      </trkpt>
      <trkpt lat="49.98099" lon="5.31356">
        <ele>439</ele>
        <time>2013-04-28T08:23:43Z</time>
      </trkpt>
      <trkpt lat="49.98094" lon="5.31356">
        <ele>439</ele>
        <time>2013-04-28T08:23:53Z</time>
      </trkpt>
      <trkpt lat="49.98091" lon="5.31355">
        <ele>439</ele>
        <time>2013-04-28T08:24:04Z</time>
      </trkpt>
      <trkpt lat="49.98085" lon="5.31359">
        <ele>439</ele>
        <time>2013-04-28T08:24:14Z</time>
      </trkpt>
      <trkpt lat="49.98074" lon="5.31366">
        <ele>439</ele>
        <time>2013-04-28T08:24:24Z</time>
      </trkpt>
      <trkpt lat="49.98062" lon="5.31375">
        <ele>440</ele>
        <time>2013-04-28T08:24:34Z</time>
      </trkpt>
      <trkpt lat="49.98051" lon="5.31383">
        <ele>440</ele>
        <time>2013-04-28T08:24:44Z</time>
      </trkpt>
      <trkpt lat="49.98038" lon="5.31392">
        <ele>441</ele>
        <time>2013-04-28T08:24:54Z</time>
      </trkpt>
      <trkpt lat="49.98026" lon="5.31401">
        <ele>441</ele>
        <time>2013-04-28T08:25:04Z</time>
      </trkpt>
      <trkpt lat="49.98018" lon="5.31406">
        <ele>441</ele>
        <time>2013-04-28T08:25:14Z</time>
      </trkpt>
      <trkpt lat="49.98007" lon="5.31413">
        <ele>441</ele>
        <time>2013-04-28T08:25:24Z</time>
      </trkpt>
      <trkpt lat="49.97994" lon="5.31423">
        <ele>441</ele>
        <time>2013-04-28T08:25:34Z</time>
      </trkpt>
      <trkpt lat="49.97982" lon="5.31431">
        <ele>441</ele>
        <time>2013-04-28T08:25:44Z</time>
      </trkpt>
      <trkpt lat="49.97973" lon="5.3144">
        <ele>441</ele>
        <time>2013-04-28T08:25:54Z</time>
      </trkpt>
      <trkpt lat="49.97964" lon="5.31447">
        <ele>441</ele>
        <time>2013-04-28T08:26:04Z</time>
      </trkpt>
      <trkpt lat="49.97952" lon="5.31452">
        <ele>442</ele>
        <time>2013-04-28T08:26:14Z</time>
      </trkpt>
      <trkpt lat="49.9794" lon="5.31457">
        <ele>442</ele>
        <time>2013-04-28T08:26:24Z</time>
      </trkpt>
      <trkpt lat="49.97933" lon="5.31464">
        <ele>442</ele>
        <time>2013-04-28T08:26:34Z</time>
      </trkpt>
      <trkpt lat="49.97916" lon="5.31462">
        <ele>442</ele>
        <time>2013-04-28T08:26:44Z</time>
      </trkpt>
      <trkpt lat="49.979" lon="5.31469">
        <ele>442</ele>
        <time>2013-04-28T08:26:54Z</time>
      </trkpt>
      <trkpt lat="49.97887" lon="5.31473">
        <ele>442</ele>
        <time>2013-04-28T08:27:05Z</time>
      </trkpt>
      <trkpt lat="49.97871" lon="5.31475">
        <ele>442</ele>
        <time>2013-04-28T08:27:15Z</time>
      </trkpt>
      <trkpt lat="49.97859" lon="5.31476">
        <ele>443</ele>
        <time>2013-04-28T08:27:25Z</time>
      </trkpt>
      <trkpt lat="49.97848" lon="5.31474">
        <ele>443</ele>
        <time>2013-04-28T08:27:35Z</time>
      </trkpt>
      <trkpt lat="49.9784" lon="5.31472">
        <ele>443</ele>
        <time>2013-04-28T08:27:45Z</time>
      </trkpt>
      <trkpt lat="49.9784" lon="5.31469">
        <ele>443</ele>
        <time>2013-04-28T08:27:55Z</time>
      </trkpt>
      <trkpt lat="49.97839" lon="5.31468">
        <ele>443</ele>
        <time>2013-04-28T08:28:05Z</time>
      </trkpt>
      <trkpt lat="49.97839" lon="5.31466">
        <ele>443</ele>
        <time>2013-04-28T08:28:15Z</time>
      </trkpt>
      <trkpt lat="49.97834" lon="5.31464">
        <ele>443</ele>
        <time>2013-04-28T08:28:25Z</time>
      </trkpt>
      <trkpt lat="49.97826" lon="5.31466">
        <ele>443</ele>
        <time>2013-04-28T08:28:35Z</time>
      </trkpt>
      <trkpt lat="49.97813" lon="5.31466">
        <ele>443</ele>
        <time>2013-04-28T08:28:45Z</time>
      </trkpt>
      <trkpt lat="49.97801" lon="5.31466">
        <ele>443</ele>
        <time>2013-04-28T08:28:55Z</time>
      </trkpt>
      <trkpt lat="49.97789" lon="5.31467">
        <ele>443</ele>
        <time>2013-04-28T08:29:05Z</time>
      </trkpt>
      <trkpt lat="49.9778" lon="5.31468">
        <ele>443</ele>
        <time>2013-04-28T08:29:15Z</time>
      </trkpt>
      <trkpt lat="49.97768" lon="5.31468">
        <ele>443</ele>
        <time>2013-04-28T08:29:26Z</time>
      </trkpt>
      <trkpt lat="49.97754" lon="5.3147">
        <ele>442</ele>
        <time>2013-04-28T08:29:36Z</time>
      </trkpt>
      <trkpt lat="49.97743" lon="5.31471">
        <ele>442</ele>
        <time>2013-04-28T08:29:46Z</time>
      </trkpt>
      <trkpt lat="49.97728" lon="5.31472">
        <ele>443</ele>
        <time>2013-04-28T08:29:56Z</time>
      </trkpt>
      <trkpt lat="49.97717" lon="5.31471">
        <ele>443</ele>
        <time>2013-04-28T08:30:06Z</time>
      </trkpt>
      <trkpt lat="49.97704" lon="5.31471">
        <ele>442</ele>
        <time>2013-04-28T08:30:16Z</time>
      </trkpt>
      <trkpt lat="49.97692" lon="5.31472">
        <ele>443</ele>
        <time>2013-04-28T08:30:26Z</time>
      </trkpt>
      <trkpt lat="49.9768" lon="5.31472">
        <ele>442</ele>
        <time>2013-04-28T08:30:36Z</time>
      </trkpt>
      <trkpt lat="49.97667" lon="5.31471">
        <ele>442</ele>
        <time>2013-04-28T08:30:46Z</time>
      </trkpt>
      <trkpt lat="49.97653" lon="5.31471">
        <ele>442</ele>
        <time>2013-04-28T08:30:56Z</time>
      </trkpt>
      <trkpt lat="49.9764" lon="5.31472">
        <ele>442</ele>
        <time>2013-04-28T08:31:06Z</time>
      </trkpt>
      <trkpt lat="49.97628" lon="5.31473">
        <ele>442</ele>
        <time>2013-04-28T08:31:16Z</time>
      </trkpt>
      <trkpt lat="49.97618" lon="5.31473">
        <ele>441</ele>
        <time>2013-04-28T08:31:27Z</time>
      </trkpt>
      <trkpt lat="49.97603" lon="5.31476">
        <ele>441</ele>
        <time>2013-04-28T08:31:37Z</time>
      </trkpt>
      <trkpt lat="49.97591" lon="5.31478">
        <ele>440</ele>
        <time>2013-04-28T08:31:47Z</time>
      </trkpt>
      <trkpt lat="49.97584" lon="5.31478">
        <ele>439</ele>
        <time>2013-04-28T08:31:57Z</time>
      </trkpt>
      <trkpt lat="49.9757" lon="5.31478">
        <ele>439</ele>
        <time>2013-04-28T08:32:07Z</time>
      </trkpt>
      <trkpt lat="49.97556" lon="5.31478">
        <ele>439</ele>
        <time>2013-04-28T08:32:17Z</time>
      </trkpt>
      <trkpt lat="49.97543" lon="5.31477">
        <ele>438</ele>
        <time>2013-04-28T08:32:27Z</time>
      </trkpt>
      <trkpt lat="49.97533" lon="5.31476">
        <ele>438</ele>
        <time>2013-04-28T08:32:37Z</time>
      </trkpt>
      <trkpt lat="49.97519" lon="5.31475">
        <ele>437</ele>
        <time>2013-04-28T08:32:47Z</time>
      </trkpt>
      <trkpt lat="49.97506" lon="5.31476">
        <ele>437</ele>
        <time>2013-04-28T08:32:57Z</time>
      </trkpt>
      <trkpt lat="49.97494" lon="5.31476">
        <ele>436</ele>
        <time>2013-04-28T08:33:07Z</time>
      </trkpt>
      <trkpt lat="49.97481" lon="5.31477">
        <ele>435</ele>
        <time>2013-04-28T08:33:17Z</time>
      </trkpt>
      <trkpt lat="49.97467" lon="5.31477">
        <ele>435</ele>
        <time>2013-04-28T08:33:27Z</time>
      </trkpt>
      <trkpt lat="49.97455" lon="5.31477">
        <ele>434</ele>
        <time>2013-04-28T08:33:37Z</time>
      </trkpt>
      <trkpt lat="49.97444" lon="5.31479">
        <ele>434</ele>
        <time>2013-04-28T08:33:48Z</time>
      </trkpt>
      <trkpt lat="49.97438" lon="5.31476">
        <ele>434</ele>
        <time>2013-04-28T08:33:58Z</time>
      </trkpt>
      <trkpt lat="49.97429" lon="5.31476">
        <ele>433</ele>
        <time>2013-04-28T08:34:08Z</time>
      </trkpt>
      <trkpt lat="49.97419" lon="5.31477">
        <ele>433</ele>
        <time>2013-04-28T08:34:18Z</time>
      </trkpt>
      <trkpt lat="49.97406" lon="5.31476">
        <ele>432</ele>
        <time>2013-04-28T08:34:28Z</time>
      </trkpt>
      <trkpt lat="49.97397" lon="5.31471">
        <ele>431</ele>
        <time>2013-04-28T08:34:38Z</time>
      </trkpt>
      <trkpt lat="49.97393" lon="5.31469">
        <ele>431</ele>
        <time>2013-04-28T08:34:48Z</time>
      </trkpt>
      <trkpt lat="49.97383" lon="5.3146">
        <ele>430</ele>
        <time>2013-04-28T08:34:58Z</time>
      </trkpt>
      <trkpt lat="49.97373" lon="5.31449">
        <ele>429</ele>
        <time>2013-04-28T08:35:08Z</time>
      </trkpt>
      <trkpt lat="49.97366" lon="5.31441">
        <ele>428</ele>
        <time>2013-04-28T08:35:18Z</time>
      </trkpt>
      <trkpt lat="49.97355" lon="5.31428">
        <ele>426</ele>
        <time>2013-04-28T08:35:28Z</time>
      </trkpt>
      <trkpt lat="49.97344" lon="5.31416">
        <ele>425</ele>
        <time>2013-04-28T08:35:39Z</time>
      </trkpt>
      <trkpt lat="49.97332" lon="5.31403">
        <ele>424</ele>
        <time>2013-04-28T08:35:49Z</time>
      </trkpt>
      <trkpt lat="49.97322" lon="5.31389">
        <ele>422</ele>
        <time>2013-04-28T08:35:59Z</time>
      </trkpt>
      <trkpt lat="49.97312" lon="5.31372">
        <ele>422</ele>
        <time>2013-04-28T08:36:09Z</time>
      </trkpt>
      <trkpt lat="49.97305" lon="5.31356">
        <ele>420</ele>
        <time>2013-04-28T08:36:19Z</time>
      </trkpt>
      <trkpt lat="49.97296" lon="5.31335">
        <ele>419</ele>
        <time>2013-04-28T08:36:29Z</time>
      </trkpt>
      <trkpt lat="49.9729" lon="5.31319">
        <ele>418</ele>
        <time>2013-04-28T08:36:39Z</time>
      </trkpt>
      <trkpt lat="49.97285" lon="5.31305">
        <ele>417</ele>
        <time>2013-04-28T08:36:49Z</time>
      </trkpt>
      <trkpt lat="49.9728" lon="5.31289">
        <ele>416</ele>
        <time>2013-04-28T08:36:59Z</time>
      </trkpt>
      <trkpt lat="49.97273" lon="5.31268">
        <ele>415</ele>
        <time>2013-04-28T08:37:10Z</time>
      </trkpt>
      <trkpt lat="49.97266" lon="5.31249">
        <ele>414</ele>
        <time>2013-04-28T08:37:20Z</time>
      </trkpt>
      <trkpt lat="49.97271" lon="5.31233">
        <ele>415</ele>
        <time>2013-04-28T08:37:30Z</time>
      </trkpt>
      <trkpt lat="49.97283" lon="5.31221">
        <ele>416</ele>
        <time>2013-04-28T08:37:40Z</time>
      </trkpt>
      <trkpt lat="49.97293" lon="5.31211">
        <ele>417</ele>
        <time>2013-04-28T08:37:50Z</time>
      </trkpt>
      <trkpt lat="49.97303" lon="5.31206">
        <ele>417</ele>
        <time>2013-04-28T08:38:00Z</time>
      </trkpt>
      <trkpt lat="49.97311" lon="5.312">
        <ele>417</ele>
        <time>2013-04-28T08:38:10Z</time>
      </trkpt>
      <trkpt lat="49.97316" lon="5.31196">
        <ele>417</ele>
        <time>2013-04-28T08:38:20Z</time>
      </trkpt>
      <trkpt lat="49.97325" lon="5.31193">
        <ele>418</ele>
        <time>2013-04-28T08:38:30Z</time>
      </trkpt>
      <trkpt lat="49.97334" lon="5.31185">
        <ele>419</ele>
        <time>2013-04-28T08:38:40Z</time>
      </trkpt>
      <trkpt lat="49.97339" lon="5.31181">
        <ele>419</ele>
        <time>2013-04-28T08:38:50Z</time>
      </trkpt>
      <trkpt lat="49.97346" lon="5.31177">
        <ele>420</ele>
        <time>2013-04-28T08:39:01Z</time>
      </trkpt>
      <trkpt lat="49.97361" lon="5.31168">
        <ele>421</ele>
        <time>2013-04-28T08:39:11Z</time>
      </trkpt>
      <trkpt lat="49.97372" lon="5.31161">
        <ele>422</ele>
        <time>2013-04-28T08:39:21Z</time>
      </trkpt>
      <trkpt lat="49.97384" lon="5.31153">
        <ele>423</ele>
        <time>2013-04-28T08:39:31Z</time>
      </trkpt>
      <trkpt lat="49.97395" lon="5.31147">
        <ele>423</ele>
        <time>2013-04-28T08:39:41Z</time>
      </trkpt>
      <trkpt lat="49.97406" lon="5.3114">
        <ele>424</ele>
        <time>2013-04-28T08:39:51Z</time>
      </trkpt>
      <trkpt lat="49.97415" lon="5.31132">
        <ele>425</ele>
        <time>2013-04-28T08:40:01Z</time>
      </trkpt>
      <trkpt lat="49.97425" lon="5.31125">
        <ele>426</ele>
        <time>2013-04-28T08:40:11Z</time>
      </trkpt>
      <trkpt lat="49.97436" lon="5.31118">
        <ele>426</ele>
        <time>2013-04-28T08:40:21Z</time>
      </trkpt>
      <trkpt lat="49.97445" lon="5.31113">
        <ele>428</ele>
        <time>2013-04-28T08:40:31Z</time>
      </trkpt>
      <trkpt lat="49.97454" lon="5.31108">
        <ele>428</ele>
        <time>2013-04-28T08:40:41Z</time>
      </trkpt>
      <trkpt lat="49.97463" lon="5.31102">
        <ele>429</ele>
        <time>2013-04-28T08:40:51Z</time>
      </trkpt>
      <trkpt lat="49.97472" lon="5.31095">
        <ele>430</ele>
        <time>2013-04-28T08:41:01Z</time>
      </trkpt>
      <trkpt lat="49.97483" lon="5.31088">
        <ele>432</ele>
        <time>2013-04-28T08:41:11Z</time>
      </trkpt>
      <trkpt lat="49.97494" lon="5.31078">
        <ele>432</ele>
        <time>2013-04-28T08:41:21Z</time>
      </trkpt>
      <trkpt lat="49.97503" lon="5.3107">
        <ele>433</ele>
        <time>2013-04-28T08:41:31Z</time>
      </trkpt>
      <trkpt lat="49.97513" lon="5.31065">
        <ele>434</ele>
        <time>2013-04-28T08:41:42Z</time>
      </trkpt>
      <trkpt lat="49.97522" lon="5.31061">
        <ele>435</ele>
        <time>2013-04-28T08:41:52Z</time>
      </trkpt>
      <trkpt lat="49.97533" lon="5.31054">
        <ele>436</ele>
        <time>2013-04-28T08:42:02Z</time>
      </trkpt>
      <trkpt lat="49.97541" lon="5.31043">
        <ele>437</ele>
        <time>2013-04-28T08:42:12Z</time>
      </trkpt>
      <trkpt lat="49.97546" lon="5.3104">
        <ele>438</ele>
        <time>2013-04-28T08:42:22Z</time>
      </trkpt>
      <trkpt lat="49.97549" lon="5.31039">
        <ele>438</ele>
        <time>2013-04-28T08:42:32Z</time>
      </trkpt>
      <trkpt lat="49.97559" lon="5.31036">
        <ele>439</ele>
        <time>2013-04-28T08:42:42Z</time>
      </trkpt>
      <trkpt lat="49.97569" lon="5.31033">
        <ele>440</ele>
        <time>2013-04-28T08:42:52Z</time>
      </trkpt>
      <trkpt lat="49.97578" lon="5.31031">
        <ele>442</ele>
        <time>2013-04-28T08:43:02Z</time>
      </trkpt>
      <trkpt lat="49.97588" lon="5.31026">
        <ele>443</ele>
        <time>2013-04-28T08:43:12Z</time>
      </trkpt>
      <trkpt lat="49.97598" lon="5.3102">
        <ele>443</ele>
        <time>2013-04-28T08:43:23Z</time>
      </trkpt>
      <trkpt lat="49.97606" lon="5.31013">
        <ele>445</ele>
        <time>2013-04-28T08:43:33Z</time>
      </trkpt>
      <trkpt lat="49.97616" lon="5.31007">
        <ele>446</ele>
        <time>2013-04-28T08:43:43Z</time>
      </trkpt>
      <trkpt lat="49.97624" lon="5.31002">
        <ele>447</ele>
        <time>2013-04-28T08:43:53Z</time>
      </trkpt>
      <trkpt lat="49.97632" lon="5.30995">
        <ele>449</ele>
        <time>2013-04-28T08:44:03Z</time>
      </trkpt>
      <trkpt lat="49.9764" lon="5.30988">
        <ele>449</ele>
        <time>2013-04-28T08:44:13Z</time>
      </trkpt>
      <trkpt lat="49.9765" lon="5.30981">
        <ele>450</ele>
        <time>2013-04-28T08:44:23Z</time>
      </trkpt>
      <trkpt lat="49.97659" lon="5.30977">
        <ele>451</ele>
        <time>2013-04-28T08:44:33Z</time>
      </trkpt>
      <trkpt lat="49.97669" lon="5.30973">
        <ele>452</ele>
        <time>2013-04-28T08:44:43Z</time>
      </trkpt>
      <trkpt lat="49.97675" lon="5.30967">
        <ele>454</ele>
        <time>2013-04-28T08:44:53Z</time>
      </trkpt>
      <trkpt lat="49.97682" lon="5.3096">
        <ele>454</ele>
        <time>2013-04-28T08:45:03Z</time>
      </trkpt>
      <trkpt lat="49.9769" lon="5.30955">
        <ele>455</ele>
        <time>2013-04-28T08:45:13Z</time>
      </trkpt>
      <trkpt lat="49.97699" lon="5.30948">
        <ele>456</ele>
        <time>2013-04-28T08:45:24Z</time>
      </trkpt>
      <trkpt lat="49.97709" lon="5.30943">
        <ele>457</ele>
        <time>2013-04-28T08:45:34Z</time>
      </trkpt>
      <trkpt lat="49.97715" lon="5.30937">
        <ele>457</ele>
        <time>2013-04-28T08:45:44Z</time>
      </trkpt>
      <trkpt lat="49.97726" lon="5.3093">
        <ele>458</ele>
        <time>2013-04-28T08:45:54Z</time>
      </trkpt>
      <trkpt lat="49.97736" lon="5.30924">
        <ele>459</ele>
        <time>2013-04-28T08:46:04Z</time>
      </trkpt>
      <trkpt lat="49.97739" lon="5.30919">
        <ele>459</ele>
        <time>2013-04-28T08:46:14Z</time>
      </trkpt>
      <trkpt lat="49.97741" lon="5.30913">
        <ele>459</ele>
        <time>2013-04-28T08:46:24Z</time>
      </trkpt>
      <trkpt lat="49.97742" lon="5.30914">
        <ele>460</ele>
        <time>2013-04-28T08:46:34Z</time>
      </trkpt>
      <trkpt lat="49.97747" lon="5.3091">
        <ele>460</ele>
        <time>2013-04-28T08:46:44Z</time>
      </trkpt>
      <trkpt lat="49.97757" lon="5.30907">
        <ele>460</ele>
        <time>2013-04-28T08:46:54Z</time>
      </trkpt>
      <trkpt lat="49.97766" lon="5.30903">
        <ele>461</ele>
        <time>2013-04-28T08:47:04Z</time>
      </trkpt>
      <trkpt lat="49.97773" lon="5.30898">
        <ele>461</ele>
        <time>2013-04-28T08:47:14Z</time>
      </trkpt>
      <trkpt lat="49.97782" lon="5.30895">
        <ele>461</ele>
        <time>2013-04-28T08:47:25Z</time>
      </trkpt>
      <trkpt lat="49.97795" lon="5.30889">
        <ele>462</ele>
        <time>2013-04-28T08:47:35Z</time>
      </trkpt>
      <trkpt lat="49.97807" lon="5.30878">
        <ele>463</ele>
        <time>2013-04-28T08:47:45Z</time>
      </trkpt>
      <trkpt lat="49.97814" lon="5.30871">
        <ele>463</ele>
        <time>2013-04-28T08:47:55Z</time>
      </trkpt>
      <trkpt lat="49.97822" lon="5.30858">
        <ele>464</ele>
        <time>2013-04-28T08:48:05Z</time>
      </trkpt>
      <trkpt lat="49.9783" lon="5.30851">
        <ele>464</ele>
        <time>2013-04-28T08:48:15Z</time>
      </trkpt>
      <trkpt lat="49.97842" lon="5.30843">
        <ele>464</ele>
        <time>2013-04-28T08:48:25Z</time>
      </trkpt>
      <trkpt lat="49.97851" lon="5.30835">
        <ele>465</ele>
        <time>2013-04-28T08:48:35Z</time>
      </trkpt>
      <trkpt lat="49.97862" lon="5.30825">
        <ele>465</ele>
        <time>2013-04-28T08:48:45Z</time>
      </trkpt>
      <trkpt lat="49.97871" lon="5.30816">
        <ele>466</ele>
        <time>2013-04-28T08:48:55Z</time>
      </trkpt>
      <trkpt lat="49.97881" lon="5.30806">
        <ele>466</ele>
        <time>2013-04-28T08:49:05Z</time>
      </trkpt>
      <trkpt lat="49.97891" lon="5.30797">
        <ele>466</ele>
        <time>2013-04-28T08:49:15Z</time>
      </trkpt>
      <trkpt lat="49.97898" lon="5.30784">
        <ele>466</ele>
        <time>2013-04-28T08:49:25Z</time>
      </trkpt>
      <trkpt lat="49.97908" lon="5.30772">
        <ele>466</ele>
        <time>2013-04-28T08:49:35Z</time>
      </trkpt>
      <trkpt lat="49.97916" lon="5.30762">
        <ele>466</ele>
        <time>2013-04-28T08:49:45Z</time>
      </trkpt>
      <trkpt lat="49.97925" lon="5.30754">
        <ele>466</ele>
        <time>2013-04-28T08:49:55Z</time>
      </trkpt>
      <trkpt lat="49.97934" lon="5.30744">
        <ele>467</ele>
        <time>2013-04-28T08:50:05Z</time>
      </trkpt>
      <trkpt lat="49.97945" lon="5.30737">
        <ele>467</ele>
        <time>2013-04-28T08:50:16Z</time>
      </trkpt>
      <trkpt lat="49.97956" lon="5.3073">
        <ele>467</ele>
        <time>2013-04-28T08:50:26Z</time>
      </trkpt>
      <trkpt lat="49.97966" lon="5.30722">
        <ele>467</ele>
        <time>2013-04-28T08:50:36Z</time>
      </trkpt>
      <trkpt lat="49.97976" lon="5.30711">
        <ele>468</ele>
        <time>2013-04-28T08:50:46Z</time>
      </trkpt>
      <trkpt lat="49.97985" lon="5.30701">
        <ele>467</ele>
        <time>2013-04-28T08:50:56Z</time>
      </trkpt>
      <trkpt lat="49.97996" lon="5.30695">
        <ele>468</ele>
        <time>2013-04-28T08:51:06Z</time>
      </trkpt>
      <trkpt lat="49.98006" lon="5.30686">
        <ele>468</ele>
        <time>2013-04-28T08:51:16Z</time>
      </trkpt>
      <trkpt lat="49.98014" lon="5.30675">
        <ele>468</ele>
        <time>2013-04-28T08:51:26Z</time>
      </trkpt>
      <trkpt lat="49.98019" lon="5.30662">
        <ele>468</ele>
        <time>2013-04-28T08:51:36Z</time>
      </trkpt>
      <trkpt lat="49.98025" lon="5.30652">
        <ele>467</ele>
        <time>2013-04-28T08:51:46Z</time>
      </trkpt>
      <trkpt lat="49.98027" lon="5.30644">
        <ele>467</ele>
        <time>2013-04-28T08:51:56Z</time>
      </trkpt>
      <trkpt lat="49.98029" lon="5.30645">
        <ele>468</ele>
        <time>2013-04-28T08:52:06Z</time>
      </trkpt>
      <trkpt lat="49.98031" lon="5.30647">
        <ele>467</ele>
        <time>2013-04-28T08:52:16Z</time>
      </trkpt>
      <trkpt lat="49.98032" lon="5.30649">
        <ele>467</ele>
        <time>2013-04-28T08:52:27Z</time>
      </trkpt>
      <trkpt lat="49.98032" lon="5.30643">
        <ele>468</ele>
        <time>2013-04-28T08:52:37Z</time>
      </trkpt>
      <trkpt lat="49.98029" lon="5.30632">
        <ele>467</ele>
        <time>2013-04-28T08:52:47Z</time>
      </trkpt>
      <trkpt lat="49.98026" lon="5.30619">
        <ele>468</ele>
        <time>2013-04-28T08:52:57Z</time>
      </trkpt>
      <trkpt lat="49.98021" lon="5.30612">
        <ele>468</ele>
        <time>2013-04-28T08:53:07Z</time>
      </trkpt>
      <trkpt lat="49.98019" lon="5.30611">
        <ele>468</ele>
        <time>2013-04-28T08:53:17Z</time>
      </trkpt>
      <trkpt lat="49.98016" lon="5.30613">
        <ele>468</ele>
        <time>2013-04-28T08:53:27Z</time>
      </trkpt>
      <trkpt lat="49.98015" lon="5.30615">
        <ele>468</ele>
        <time>2013-04-28T08:53:37Z</time>
      </trkpt>
      <trkpt lat="49.98015" lon="5.30617">
        <ele>468</ele>
        <time>2013-04-28T08:53:47Z</time>
      </trkpt>
      <trkpt lat="49.98015" lon="5.30617">
        <ele>468</ele>
        <time>2013-04-28T08:53:57Z</time>
      </trkpt>
      <trkpt lat="49.98015" lon="5.30618">
        <ele>468</ele>
        <time>2013-04-28T08:54:07Z</time>
      </trkpt>
      <trkpt lat="49.98014" lon="5.30619">
        <ele>468</ele>
        <time>2013-04-28T08:54:17Z</time>
      </trkpt>
      <trkpt lat="49.98015" lon="5.30619">
        <ele>468</ele>
        <time>2013-04-28T08:54:27Z</time>
      </trkpt>
      <trkpt lat="49.98016" lon="5.30619">
        <ele>468</ele>
        <time>2013-04-28T08:54:37Z</time>
      </trkpt>
      <trkpt lat="49.98016" lon="5.30621">
        <ele>468</ele>
        <time>2013-04-28T08:54:47Z</time>
      </trkpt>
      <trkpt lat="49.98018" lon="5.30615">
        <ele>468</ele>
        <time>2013-04-28T08:54:57Z</time>
      </trkpt>
      <trkpt lat="49.98019" lon="5.30614">
        <ele>468</ele>
        <time>2013-04-28T08:55:07Z</time>
      </trkpt>
      <trkpt lat="49.98025" lon="5.30621">
        <ele>468</ele>
        <time>2013-04-28T08:55:17Z</time>
      </trkpt>
      <trkpt lat="49.98031" lon="5.30619">
        <ele>468</ele>
        <time>2013-04-28T08:55:28Z</time>
      </trkpt>
      <trkpt lat="49.98035" lon="5.30616">
        <ele>468</ele>
        <time>2013-04-28T08:55:38Z</time>
      </trkpt>
      <trkpt lat="49.9803" lon="5.30624">
        <ele>467</ele>
        <time>2013-04-28T08:55:48Z</time>
      </trkpt>
      <trkpt lat="49.98029" lon="5.30625">
        <ele>467</ele>
        <time>2013-04-28T08:55:58Z</time>
      </trkpt>
      <trkpt lat="49.98026" lon="5.3063">
        <ele>467</ele>
        <time>2013-04-28T08:56:08Z</time>
      </trkpt>
      <trkpt lat="49.98024" lon="5.30634">
        <ele>468</ele>
        <time>2013-04-28T08:56:18Z</time>
      </trkpt>
      <trkpt lat="49.9802" lon="5.3064">
        <ele>468</ele>
        <time>2013-04-28T08:56:28Z</time>
      </trkpt>
      <trkpt lat="49.98022" lon="5.30629">
        <ele>468</ele>
        <time>2013-04-28T08:56:38Z</time>
      </trkpt>
      <trkpt lat="49.98022" lon="5.30621">
        <ele>468</ele>
        <time>2013-04-28T08:56:48Z</time>
      </trkpt>
      <trkpt lat="49.9802" lon="5.30616">
        <ele>468</ele>
        <time>2013-04-28T08:56:58Z</time>
      </trkpt>
      <trkpt lat="49.98019" lon="5.30617">
        <ele>468</ele>
        <time>2013-04-28T08:57:08Z</time>
      </trkpt>
      <trkpt lat="49.9802" lon="5.30611">
        <ele>469</ele>
        <time>2013-04-28T08:57:18Z</time>
      </trkpt>
      <trkpt lat="49.98023" lon="5.30605">
        <ele>468</ele>
        <time>2013-04-28T08:57:28Z</time>
      </trkpt>
      <trkpt lat="49.98024" lon="5.30602">
        <ele>469</ele>
        <time>2013-04-28T08:57:38Z</time>
      </trkpt>
      <trkpt lat="49.98026" lon="5.30598">
        <ele>468</ele>
        <time>2013-04-28T08:57:48Z</time>
      </trkpt>
      <trkpt lat="49.98028" lon="5.30597">
        <ele>469</ele>
        <time>2013-04-28T08:57:59Z</time>
      </trkpt>
      <trkpt lat="49.98025" lon="5.30602">
        <ele>469</ele>
        <time>2013-04-28T08:58:09Z</time>
      </trkpt>
      <trkpt lat="49.98024" lon="5.30607">
        <ele>469</ele>
        <time>2013-04-28T08:58:19Z</time>
      </trkpt>
      <trkpt lat="49.98022" lon="5.30613">
        <ele>468</ele>
        <time>2013-04-28T08:58:29Z</time>
      </trkpt>
      <trkpt lat="49.98021" lon="5.30612">
        <ele>469</ele>
        <time>2013-04-28T08:58:39Z</time>
      </trkpt>
      <trkpt lat="49.98023" lon="5.30609">
        <ele>469</ele>
        <time>2013-04-28T08:58:49Z</time>
      </trkpt>
      <trkpt lat="49.98023" lon="5.30607">
        <ele>469</ele>
        <time>2013-04-28T08:58:59Z</time>
      </trkpt>
      <trkpt lat="49.98021" lon="5.30608">
        <ele>469</ele>
        <time>2013-04-28T08:59:09Z</time>
      </trkpt>
      <trkpt lat="49.98021" lon="5.30609">
        <ele>469</ele>
        <time>2013-04-28T08:59:19Z</time>
      </trkpt>
      <trkpt lat="49.98022" lon="5.3061">
        <ele>469</ele>
        <time>2013-04-28T08:59:29Z</time>
      </trkpt>
      <trkpt lat="49.98022" lon="5.30612">
        <ele>469</ele>
        <time>2013-04-28T08:59:39Z</time>
      </trkpt>
      <trkpt lat="49.98022" lon="5.30613">
        <ele>469</ele>
        <time>2013-04-28T08:59:49Z</time>
      </trkpt>
      <trkpt lat="49.98021" lon="5.3061">
        <ele>469</ele>
        <time>2013-04-28T08:59:59Z</time>
      </trkpt>
      <trkpt lat="49.98019" lon="5.30609">
        <ele>469</ele>
        <time>2013-04-28T09:00:09Z</time>
      </trkpt>
      <trkpt lat="49.98016" lon="5.30614">
        <ele>470</ele>
        <time>2013-04-28T09:00:20Z</time>
      </trkpt>
      <trkpt lat="49.98016" lon="5.30615">
        <ele>469</ele>
        <time>2013-04-28T09:00:30Z</time>
      </trkpt>
      <trkpt lat="49.98018" lon="5.30616">
        <ele>469</ele>
        <time>2013-04-28T09:00:40Z</time>
      </trkpt>
      <trkpt lat="49.98018" lon="5.3062">
        <ele>470</ele>
        <time>2013-04-28T09:00:50Z</time>
      </trkpt>
      <trkpt lat="49.9802" lon="5.30621">
        <ele>469</ele>
        <time>2013-04-28T09:01:00Z</time>
      </trkpt>
      <trkpt lat="49.98024" lon="5.30617">
        <ele>469</ele>
        <time>2013-04-28T09:01:10Z</time>
      </trkpt>
      <trkpt lat="49.98024" lon="5.30613">
        <ele>470</ele>
        <time>2013-04-28T09:01:20Z</time>
      </trkpt>
      <trkpt lat="49.98025" lon="5.30612">
        <ele>470</ele>
        <time>2013-04-28T09:01:30Z</time>
      </trkpt>
      <trkpt lat="49.98023" lon="5.30613">
        <ele>470</ele>
        <time>2013-04-28T09:01:40Z</time>
      </trkpt>
      <trkpt lat="49.98024" lon="5.30614">
        <ele>470</ele>
        <time>2013-04-28T09:01:50Z</time>
      </trkpt>
      <trkpt lat="49.98026" lon="5.30615">
        <ele>470</ele>
        <time>2013-04-28T09:02:00Z</time>
      </trkpt>
      <trkpt lat="49.98026" lon="5.30617">
        <ele>470</ele>
        <time>2013-04-28T09:02:11Z</time>
      </trkpt>
      <trkpt lat="49.98024" lon="5.30618">
        <ele>470</ele>
        <time>2013-04-28T09:02:21Z</time>
      </trkpt>
      <trkpt lat="49.98023" lon="5.30616">
        <ele>470</ele>
        <time>2013-04-28T09:02:31Z</time>
      </trkpt>
      <trkpt lat="49.98022" lon="5.30616">
        <ele>470</ele>
        <time>2013-04-28T09:02:41Z</time>
      </trkpt>
      <trkpt lat="49.9802" lon="5.30612">
        <ele>471</ele>
        <time>2013-04-28T09:02:51Z</time>
      </trkpt>
      <trkpt lat="49.98016" lon="5.30599">
        <ele>471</ele>
        <time>2013-04-28T09:03:01Z</time>
      </trkpt>
      <trkpt lat="49.98016" lon="5.30578">
        <ele>472</ele>
        <time>2013-04-28T09:03:11Z</time>
      </trkpt>
      <trkpt lat="49.98013" lon="5.30561">
        <ele>472</ele>
        <time>2013-04-28T09:03:21Z</time>
      </trkpt>
      <trkpt lat="49.98011" lon="5.30545">
        <ele>473</ele>
        <time>2013-04-28T09:03:31Z</time>
      </trkpt>
      <trkpt lat="49.98008" lon="5.30527">
        <ele>474</ele>
        <time>2013-04-28T09:03:41Z</time>
      </trkpt>
      <trkpt lat="49.98005" lon="5.30509">
        <ele>474</ele>
        <time>2013-04-28T09:03:51Z</time>
      </trkpt>
      <trkpt lat="49.98001" lon="5.30492">
        <ele>474</ele>
        <time>2013-04-28T09:04:01Z</time>
      </trkpt>
      <trkpt lat="49.97998" lon="5.30476">
        <ele>475</ele>
        <time>2013-04-28T09:04:11Z</time>
      </trkpt>
      <trkpt lat="49.97995" lon="5.30462">
        <ele>475</ele>
        <time>2013-04-28T09:04:21Z</time>
      </trkpt>
      <trkpt lat="49.97993" lon="5.30446">
        <ele>476</ele>
        <time>2013-04-28T09:04:31Z</time>
      </trkpt>
      <trkpt lat="49.9799" lon="5.30431">
        <ele>477</ele>
        <time>2013-04-28T09:04:42Z</time>
      </trkpt>
      <trkpt lat="49.97986" lon="5.30416">
        <ele>477</ele>
        <time>2013-04-28T09:04:52Z</time>
      </trkpt>
      <trkpt lat="49.97983" lon="5.30402">
        <ele>478</ele>
        <time>2013-04-28T09:05:02Z</time>
      </trkpt>
      <trkpt lat="49.97985" lon="5.30389">
        <ele>479</ele>
        <time>2013-04-28T09:05:12Z</time>
      </trkpt>
      <trkpt lat="49.97984" lon="5.30373">
        <ele>479</ele>
        <time>2013-04-28T09:05:22Z</time>
      </trkpt>
      <trkpt lat="49.97982" lon="5.3036">
        <ele>479</ele>
        <time>2013-04-28T09:05:32Z</time>
      </trkpt>
      <trkpt lat="49.9798" lon="5.30348">
        <ele>480</ele>
        <time>2013-04-28T09:05:42Z</time>
      </trkpt>
      <trkpt lat="49.97979" lon="5.30336">
        <ele>480</ele>
        <time>2013-04-28T09:05:52Z</time>
      </trkpt>
      <trkpt lat="49.97977" lon="5.30322">
        <ele>481</ele>
        <time>2013-04-28T09:06:02Z</time>
      </trkpt>
      <trkpt lat="49.97973" lon="5.30303">
        <ele>481</ele>
        <time>2013-04-28T09:06:12Z</time>
      </trkpt>
      <trkpt lat="49.97969" lon="5.30285">
        <ele>482</ele>
        <time>2013-04-28T09:06:22Z</time>
      </trkpt>
      <trkpt lat="49.97965" lon="5.30266">
        <ele>482</ele>
        <time>2013-04-28T09:06:32Z</time>
      </trkpt>
      <trkpt lat="49.97965" lon="5.30248">
        <ele>484</ele>
        <time>2013-04-28T09:06:43Z</time>
      </trkpt>
      <trkpt lat="49.97962" lon="5.30234">
        <ele>484</ele>
        <time>2013-04-28T09:06:53Z</time>
      </trkpt>
      <trkpt lat="49.97953" lon="5.30237">
        <ele>484</ele>
        <time>2013-04-28T09:07:03Z</time>
      </trkpt>
      <trkpt lat="49.97941" lon="5.3024">
        <ele>484</ele>
        <time>2013-04-28T09:07:13Z</time>
      </trkpt>
      <trkpt lat="49.9793" lon="5.30243">
        <ele>484</ele>
        <time>2013-04-28T09:07:23Z</time>
      </trkpt>
      <trkpt lat="49.97918" lon="5.30246">
        <ele>483</ele>
        <time>2013-04-28T09:07:33Z</time>
      </trkpt>
      <trkpt lat="49.97908" lon="5.3025">
        <ele>483</ele>
        <time>2013-04-28T09:07:43Z</time>
      </trkpt>
      <trkpt lat="49.97897" lon="5.30249">
        <ele>482</ele>
        <time>2013-04-28T09:07:53Z</time>
      </trkpt>
      <trkpt lat="49.97884" lon="5.30249">
        <ele>483</ele>
        <time>2013-04-28T09:08:03Z</time>
      </trkpt>
      <trkpt lat="49.97871" lon="5.30252">
        <ele>482</ele>
        <time>2013-04-28T09:08:13Z</time>
      </trkpt>
      <trkpt lat="49.97857" lon="5.30256">
        <ele>482</ele>
        <time>2013-04-28T09:08:23Z</time>
      </trkpt>
      <trkpt lat="49.97843" lon="5.3026">
        <ele>482</ele>
        <time>2013-04-28T09:08:33Z</time>
      </trkpt>
      <trkpt lat="49.97831" lon="5.30263">
        <ele>482</ele>
        <time>2013-04-28T09:08:43Z</time>
      </trkpt>
      <trkpt lat="49.9782" lon="5.30265">
        <ele>481</ele>
        <time>2013-04-28T09:08:53Z</time>
      </trkpt>
      <trkpt lat="49.9781" lon="5.30264">
        <ele>481</ele>
        <time>2013-04-28T09:09:03Z</time>
      </trkpt>
      <trkpt lat="49.97799" lon="5.30261">
        <ele>481</ele>
        <time>2013-04-28T09:09:13Z</time>
      </trkpt>
      <trkpt lat="49.97786" lon="5.30264">
        <ele>481</ele>
        <time>2013-04-28T09:09:24Z</time>
      </trkpt>
      <trkpt lat="49.97773" lon="5.30267">
        <ele>481</ele>
        <time>2013-04-28T09:09:34Z</time>
      </trkpt>
      <trkpt lat="49.97761" lon="5.30271">
        <ele>480</ele>
        <time>2013-04-28T09:09:44Z</time>
      </trkpt>
      <trkpt lat="49.97758" lon="5.30269">
        <ele>480</ele>
        <time>2013-04-28T09:09:54Z</time>
      </trkpt>
      <trkpt lat="49.97755" lon="5.30266">
        <ele>480</ele>
        <time>2013-04-28T09:10:04Z</time>
      </trkpt>
      <trkpt lat="49.97752" lon="5.30261">
        <ele>481</ele>
        <time>2013-04-28T09:10:14Z</time>
      </trkpt>
      <trkpt lat="49.9775" lon="5.30257">
        <ele>481</ele>
        <time>2013-04-28T09:10:24Z</time>
      </trkpt>
      <trkpt lat="49.97747" lon="5.30254">
        <ele>481</ele>
        <time>2013-04-28T09:10:34Z</time>
      </trkpt>
      <trkpt lat="49.9774" lon="5.30257">
        <ele>480</ele>
        <time>2013-04-28T09:10:44Z</time>
      </trkpt>
      <trkpt lat="49.9773" lon="5.30264">
        <ele>480</ele>
        <time>2013-04-28T09:10:55Z</time>
      </trkpt>
      <trkpt lat="49.97717" lon="5.30268">
        <ele>480</ele>
        <time>2013-04-28T09:11:05Z</time>
      </trkpt>
      <trkpt lat="49.97704" lon="5.30273">
        <ele>480</ele>
        <time>2013-04-28T09:11:15Z</time>
      </trkpt>
      <trkpt lat="49.97691" lon="5.30277">
        <ele>480</ele>
        <time>2013-04-28T09:11:25Z</time>
      </trkpt>
      <trkpt lat="49.97679" lon="5.30283">
        <ele>479</ele>
        <time>2013-04-28T09:11:35Z</time>
      </trkpt>
      <trkpt lat="49.97668" lon="5.30286">
        <ele>479</ele>
        <time>2013-04-28T09:11:45Z</time>
      </trkpt>
      <trkpt lat="49.97665" lon="5.30283">
        <ele>479</ele>
        <time>2013-04-28T09:11:55Z</time>
      </trkpt>
      <trkpt lat="49.97665" lon="5.30269">
        <ele>479</ele>
        <time>2013-04-28T09:12:05Z</time>
      </trkpt>
      <trkpt lat="49.97665" lon="5.30254">
        <ele>480</ele>
        <time>2013-04-28T09:12:15Z</time>
      </trkpt>
      <trkpt lat="49.97666" lon="5.30243">
        <ele>480</ele>
        <time>2013-04-28T09:12:25Z</time>
      </trkpt>
      <trkpt lat="49.97666" lon="5.30238">
        <ele>481</ele>
        <time>2013-04-28T09:12:35Z</time>
      </trkpt>
      <trkpt lat="49.97667" lon="5.30232">
        <ele>481</ele>
        <time>2013-04-28T09:12:45Z</time>
      </trkpt>
      <trkpt lat="49.97668" lon="5.30214">
        <ele>481</ele>
        <time>2013-04-28T09:12:56Z</time>
      </trkpt>
      <trkpt lat="49.97668" lon="5.30195">
        <ele>482</ele>
        <time>2013-04-28T09:13:06Z</time>
      </trkpt>
      <trkpt lat="49.97667" lon="5.30176">
        <ele>482</ele>
        <time>2013-04-28T09:13:16Z</time>
      </trkpt>
      <trkpt lat="49.97668" lon="5.30158">
        <ele>483</ele>
        <time>2013-04-28T09:13:26Z</time>
      </trkpt>
      <trkpt lat="49.97667" lon="5.30146">
        <ele>483</ele>
        <time>2013-04-28T09:13:36Z</time>
      </trkpt>
      <trkpt lat="49.97666" lon="5.30129">
        <ele>483</ele>
        <time>2013-04-28T09:13:46Z</time>
      </trkpt>
      <trkpt lat="49.97664" lon="5.30108">
        <ele>484</ele>
        <time>2013-04-28T09:13:56Z</time>
      </trkpt>
      <trkpt lat="49.97665" lon="5.30091">
        <ele>484</ele>
        <time>2013-04-28T09:14:06Z</time>
      </trkpt>
      <trkpt lat="49.97665" lon="5.30071">
        <ele>484</ele>
        <time>2013-04-28T09:14:16Z</time>
      </trkpt>
      <trkpt lat="49.97666" lon="5.30058">
        <ele>485</ele>
        <time>2013-04-28T09:14:26Z</time>
      </trkpt>
      <trkpt lat="49.97666" lon="5.30042">
        <ele>485</ele>
        <time>2013-04-28T09:14:36Z</time>
      </trkpt>
      <trkpt lat="49.97665" lon="5.30024">
        <ele>484</ele>
        <time>2013-04-28T09:14:46Z</time>
      </trkpt>
      <trkpt lat="49.97666" lon="5.30024">
        <ele>484</ele>
        <time>2013-04-28T09:14:56Z</time>
      </trkpt>
      <trkpt lat="49.97667" lon="5.30023">
        <ele>485</ele>
        <time>2013-04-28T09:15:06Z</time>
      </trkpt>
      <trkpt lat="49.97667" lon="5.30021">
        <ele>485</ele>
        <time>2013-04-28T09:15:16Z</time>
      </trkpt>
      <trkpt lat="49.97667" lon="5.30021">
        <ele>485</ele>
        <time>2013-04-28T09:15:27Z</time>
      </trkpt>
      <trkpt lat="49.97665" lon="5.30015">
        <ele>485</ele>
        <time>2013-04-28T09:15:37Z</time>
      </trkpt>
      <trkpt lat="49.97665" lon="5.30009">
        <ele>485</ele>
        <time>2013-04-28T09:15:47Z</time>
      </trkpt>
      <trkpt lat="49.97668" lon="5.2999">
        <ele>485</ele>
        <time>2013-04-28T09:15:57Z</time>
      </trkpt>
      <trkpt lat="49.97667" lon="5.29971">
        <ele>485</ele>
        <time>2013-04-28T09:16:07Z</time>
      </trkpt>
      <trkpt lat="49.97667" lon="5.29952">
        <ele>485</ele>
        <time>2013-04-28T09:16:17Z</time>
      </trkpt>
      <trkpt lat="49.97666" lon="5.29934">
        <ele>484</ele>
        <time>2013-04-28T09:16:27Z</time>
      </trkpt>
      <trkpt lat="49.97666" lon="5.29915">
        <ele>484</ele>
        <time>2013-04-28T09:16:37Z</time>
      </trkpt>
      <trkpt lat="49.97664" lon="5.29896">
        <ele>483</ele>
        <time>2013-04-28T09:16:47Z</time>
      </trkpt>
      <trkpt lat="49.97662" lon="5.2988">
        <ele>483</ele>
        <time>2013-04-28T09:16:57Z</time>
      </trkpt>
      <trkpt lat="49.97659" lon="5.29863">
        <ele>483</ele>
        <time>2013-04-28T09:17:07Z</time>
      </trkpt>
      <trkpt lat="49.97661" lon="5.29845">
        <ele>482</ele>
        <time>2013-04-28T09:17:17Z</time>
      </trkpt>
      <trkpt lat="49.97661" lon="5.29829">
        <ele>482</ele>
        <time>2013-04-28T09:17:28Z</time>
      </trkpt>
      <trkpt lat="49.9766" lon="5.2981">
        <ele>481</ele>
        <time>2013-04-28T09:17:38Z</time>
      </trkpt>
      <trkpt lat="49.97658" lon="5.2979">
        <ele>481</ele>
        <time>2013-04-28T09:17:48Z</time>
      </trkpt>
      <trkpt lat="49.97658" lon="5.29768">
        <ele>480</ele>
        <time>2013-04-28T09:17:58Z</time>
      </trkpt>
      <trkpt lat="49.97658" lon="5.29749">
        <ele>479</ele>
        <time>2013-04-28T09:18:08Z</time>
      </trkpt>
      <trkpt lat="49.97659" lon="5.29734">
        <ele>479</ele>
        <time>2013-04-28T09:18:18Z</time>
      </trkpt>
      <trkpt lat="49.97658" lon="5.2973">
        <ele>478</ele>
        <time>2013-04-28T09:18:28Z</time>
      </trkpt>
      <trkpt lat="49.9766" lon="5.29711">
        <ele>478</ele>
        <time>2013-04-28T09:18:38Z</time>
      </trkpt>
      <trkpt lat="49.97664" lon="5.29692">
        <ele>477</ele>
        <time>2013-04-28T09:18:48Z</time>
      </trkpt>
      <trkpt lat="49.97667" lon="5.29674">
        <ele>476</ele>
        <time>2013-04-28T09:18:58Z</time>
      </trkpt>
      <trkpt lat="49.97667" lon="5.29656">
        <ele>476</ele>
        <time>2013-04-28T09:19:08Z</time>
      </trkpt>
      <trkpt lat="49.97669" lon="5.29638">
        <ele>475</ele>
        <time>2013-04-28T09:19:18Z</time>
      </trkpt>
      <trkpt lat="49.97673" lon="5.29621">
        <ele>474</ele>
        <time>2013-04-28T09:19:28Z</time>
      </trkpt>
      <trkpt lat="49.97676" lon="5.29602">
        <ele>474</ele>
        <time>2013-04-28T09:19:38Z</time>
      </trkpt>
      <trkpt lat="49.97678" lon="5.29584">
        <ele>473</ele>
        <time>2013-04-28T09:19:48Z</time>
      </trkpt>
      <trkpt lat="49.97679" lon="5.29567">
        <ele>472</ele>
        <time>2013-04-28T09:19:59Z</time>
      </trkpt>
      <trkpt lat="49.97683" lon="5.2955">
        <ele>471</ele>
        <time>2013-04-28T09:20:09Z</time>
      </trkpt>
      <trkpt lat="49.97688" lon="5.2953">
        <ele>470</ele>
        <time>2013-04-28T09:20:19Z</time>
      </trkpt>
      <trkpt lat="49.97694" lon="5.29512">
        <ele>469</ele>
        <time>2013-04-28T09:20:30Z</time>
      </trkpt>
      <trkpt lat="49.97702" lon="5.29499">
        <ele>468</ele>
        <time>2013-04-28T09:20:40Z</time>
      </trkpt>
      <trkpt lat="49.97714" lon="5.29484">
        <ele>466</ele>
        <time>2013-04-28T09:20:51Z</time>
      </trkpt>
      <trkpt lat="49.97723" lon="5.29469">
        <ele>466</ele>
        <time>2013-04-28T09:21:01Z</time>
      </trkpt>
      <trkpt lat="49.97731" lon="5.29451">
        <ele>465</ele>
        <time>2013-04-28T09:21:11Z</time>
      </trkpt>
      <trkpt lat="49.97737" lon="5.29429">
        <ele>463</ele>
        <time>2013-04-28T09:21:21Z</time>
      </trkpt>
      <trkpt lat="49.97741" lon="5.29409">
        <ele>462</ele>
        <time>2013-04-28T09:21:31Z</time>
      </trkpt>
      <trkpt lat="49.97742" lon="5.29386">
        <ele>461</ele>
        <time>2013-04-28T09:21:42Z</time>
      </trkpt>
      <trkpt lat="49.9774" lon="5.29371">
        <ele>461</ele>
        <time>2013-04-28T09:21:52Z</time>
      </trkpt>
      <trkpt lat="49.97743" lon="5.2936">
        <ele>460</ele>
        <time>2013-04-28T09:22:02Z</time>
      </trkpt>
      <trkpt lat="49.97741" lon="5.29336">
        <ele>459</ele>
        <time>2013-04-28T09:22:12Z</time>
      </trkpt>
      <trkpt lat="49.9774" lon="5.29316">
        <ele>459</ele>
        <time>2013-04-28T09:22:22Z</time>
      </trkpt>
      <trkpt lat="49.97742" lon="5.29297">
        <ele>457</ele>
        <time>2013-04-28T09:22:32Z</time>
      </trkpt>
      <trkpt lat="49.97742" lon="5.29277">
        <ele>457</ele>
        <time>2013-04-28T09:22:42Z</time>
      </trkpt>
      <trkpt lat="49.97741" lon="5.29257">
        <ele>455</ele>
        <time>2013-04-28T09:22:52Z</time>
      </trkpt>
      <trkpt lat="49.97741" lon="5.29237">
        <ele>455</ele>
        <time>2013-04-28T09:23:03Z</time>
      </trkpt>
      <trkpt lat="49.97741" lon="5.29216">
        <ele>454</ele>
        <time>2013-04-28T09:23:13Z</time>
      </trkpt>
      <trkpt lat="49.97739" lon="5.29197">
        <ele>453</ele>
        <time>2013-04-28T09:23:23Z</time>
      </trkpt>
      <trkpt lat="49.97738" lon="5.29178">
        <ele>452</ele>
        <time>2013-04-28T09:23:33Z</time>
      </trkpt>
      <trkpt lat="49.97736" lon="5.29158">
        <ele>451</ele>
        <time>2013-04-28T09:23:44Z</time>
      </trkpt>
      <trkpt lat="49.97736" lon="5.29141">
        <ele>449</ele>
        <time>2013-04-28T09:23:54Z</time>
      </trkpt>
      <trkpt lat="49.97736" lon="5.29122">
        <ele>449</ele>
        <time>2013-04-28T09:24:04Z</time>
      </trkpt>
      <trkpt lat="49.97734" lon="5.29101">
        <ele>448</ele>
        <time>2013-04-28T09:24:14Z</time>
      </trkpt>
      <trkpt lat="49.97732" lon="5.29088">
        <ele>447</ele>
        <time>2013-04-28T09:24:24Z</time>
      </trkpt>
      <trkpt lat="49.97732" lon="5.29069">
        <ele>447</ele>
        <time>2013-04-28T09:24:34Z</time>
      </trkpt>
      <trkpt lat="49.97729" lon="5.29052">
        <ele>446</ele>
        <time>2013-04-28T09:24:44Z</time>
      </trkpt>
      <trkpt lat="49.97726" lon="5.29036">
        <ele>446</ele>
        <time>2013-04-28T09:24:54Z</time>
      </trkpt>
      <trkpt lat="49.97721" lon="5.29021">
        <ele>445</ele>
        <time>2013-04-28T09:25:04Z</time>
      </trkpt>
      <trkpt lat="49.97719" lon="5.29005">
        <ele>443</ele>
        <time>2013-04-28T09:25:15Z</time>
      </trkpt>
      <trkpt lat="49.97715" lon="5.28988">
        <ele>443</ele>
        <time>2013-04-28T09:25:25Z</time>
      </trkpt>
      <trkpt lat="49.97712" lon="5.28972">
        <ele>443</ele>
        <time>2013-04-28T09:25:35Z</time>
      </trkpt>
      <trkpt lat="49.97708" lon="5.2896">
        <ele>442</ele>
        <time>2013-04-28T09:25:45Z</time>
      </trkpt>
      <trkpt lat="49.97704" lon="5.28948">
        <ele>441</ele>
        <time>2013-04-28T09:25:55Z</time>
      </trkpt>
      <trkpt lat="49.97697" lon="5.28932">
        <ele>440</ele>
        <time>2013-04-28T09:26:06Z</time>
      </trkpt>
      <trkpt lat="49.97692" lon="5.28914">
        <ele>439</ele>
        <time>2013-04-28T09:26:16Z</time>
      </trkpt>
      <trkpt lat="49.97686" lon="5.28899">
        <ele>439</ele>
        <time>2013-04-28T09:26:26Z</time>
      </trkpt>
      <trkpt lat="49.97681" lon="5.28884">
        <ele>438</ele>
        <time>2013-04-28T09:26:36Z</time>
      </trkpt>
      <trkpt lat="49.9768" lon="5.28867">
        <ele>437</ele>
        <time>2013-04-28T09:26:46Z</time>
      </trkpt>
      <trkpt lat="49.9768" lon="5.28854">
        <ele>437</ele>
        <time>2013-04-28T09:26:56Z</time>
      </trkpt>
      <trkpt lat="49.97681" lon="5.28838">
        <ele>437</ele>
        <time>2013-04-28T09:27:06Z</time>
      </trkpt>
      <trkpt lat="49.97683" lon="5.28822">
        <ele>436</ele>
        <time>2013-04-28T09:27:16Z</time>
      </trkpt>
      <trkpt lat="49.97682" lon="5.28815">
        <ele>437</ele>
        <time>2013-04-28T09:27:26Z</time>
      </trkpt>
      <trkpt lat="49.97679" lon="5.28799">
        <ele>437</ele>
        <time>2013-04-28T09:27:36Z</time>
      </trkpt>
      <trkpt lat="49.97678" lon="5.28779">
        <ele>436</ele>
        <time>2013-04-28T09:27:46Z</time>
      </trkpt>
      <trkpt lat="49.97677" lon="5.28762">
        <ele>437</ele>
        <time>2013-04-28T09:27:56Z</time>
      </trkpt>
      <trkpt lat="49.97673" lon="5.28745">
        <ele>437</ele>
        <time>2013-04-28T09:28:07Z</time>
      </trkpt>
      <trkpt lat="49.97672" lon="5.2874">
        <ele>437</ele>
        <time>2013-04-28T09:28:17Z</time>
      </trkpt>
      <trkpt lat="49.97669" lon="5.28721">
        <ele>438</ele>
        <time>2013-04-28T09:28:27Z</time>
      </trkpt>
      <trkpt lat="49.97666" lon="5.28702">
        <ele>438</ele>
        <time>2013-04-28T09:28:37Z</time>
      </trkpt>
      <trkpt lat="49.97664" lon="5.28685">
        <ele>439</ele>
        <time>2013-04-28T09:28:47Z</time>
      </trkpt>
      <trkpt lat="49.97662" lon="5.28667">
        <ele>439</ele>
        <time>2013-04-28T09:28:57Z</time>
      </trkpt>
      <trkpt lat="49.97661" lon="5.28651">
        <ele>439</ele>
        <time>2013-04-28T09:29:07Z</time>
      </trkpt>
      <trkpt lat="49.97658" lon="5.28635">
        <ele>439</ele>
        <time>2013-04-28T09:29:17Z</time>
      </trkpt>
      <trkpt lat="49.97655" lon="5.28619">
        <ele>440</ele>
        <time>2013-04-28T09:29:27Z</time>
      </trkpt>
      <trkpt lat="49.97652" lon="5.28603">
        <ele>441</ele>
        <time>2013-04-28T09:29:37Z</time>
      </trkpt>
      <trkpt lat="49.97649" lon="5.28586">
        <ele>441</ele>
        <time>2013-04-28T09:29:47Z</time>
      </trkpt>
      <trkpt lat="49.97646" lon="5.28566">
        <ele>442</ele>
        <time>2013-04-28T09:29:57Z</time>
      </trkpt>
      <trkpt lat="49.97643" lon="5.28546">
        <ele>442</ele>
        <time>2013-04-28T09:30:07Z</time>
      </trkpt>
      <trkpt lat="49.97641" lon="5.28528">
        <ele>443</ele>
        <time>2013-04-28T09:30:17Z</time>
      </trkpt>
      <trkpt lat="49.97639" lon="5.28508">
        <ele>443</ele>
        <time>2013-04-28T09:30:27Z</time>
      </trkpt>
      <trkpt lat="49.97637" lon="5.28489">
        <ele>444</ele>
        <time>2013-04-28T09:30:37Z</time>
      </trkpt>
      <trkpt lat="49.97634" lon="5.2847">
        <ele>444</ele>
        <time>2013-04-28T09:30:48Z</time>
      </trkpt>
      <trkpt lat="49.97631" lon="5.28451">
        <ele>445</ele>
        <time>2013-04-28T09:30:58Z</time>
      </trkpt>
      <trkpt lat="49.97629" lon="5.28435">
        <ele>445</ele>
        <time>2013-04-28T09:31:08Z</time>
      </trkpt>
      <trkpt lat="49.97627" lon="5.28416">
        <ele>446</ele>
        <time>2013-04-28T09:31:18Z</time>
      </trkpt>
      <trkpt lat="49.97624" lon="5.28397">
        <ele>445</ele>
        <time>2013-04-28T09:31:28Z</time>
      </trkpt>
      <trkpt lat="49.97622" lon="5.28379">
        <ele>446</ele>
        <time>2013-04-28T09:31:38Z</time>
      </trkpt>
      <trkpt lat="49.9762" lon="5.28361">
        <ele>446</ele>
        <time>2013-04-28T09:31:48Z</time>
      </trkpt>
      <trkpt lat="49.97618" lon="5.28343">
        <ele>446</ele>
        <time>2013-04-28T09:31:58Z</time>
      </trkpt>
      <trkpt lat="49.97615" lon="5.28327">
        <ele>446</ele>
        <time>2013-04-28T09:32:08Z</time>
      </trkpt>
      <trkpt lat="49.97613" lon="5.28308">
        <ele>447</ele>
        <time>2013-04-28T09:32:18Z</time>
      </trkpt>
      <trkpt lat="49.9761" lon="5.28291">
        <ele>448</ele>
        <time>2013-04-28T09:32:28Z</time>
      </trkpt>
      <trkpt lat="49.97607" lon="5.28274">
        <ele>447</ele>
        <time>2013-04-28T09:32:38Z</time>
      </trkpt>
      <trkpt lat="49.97606" lon="5.28257">
        <ele>447</ele>
        <time>2013-04-28T09:32:48Z</time>
      </trkpt>
      <trkpt lat="49.97604" lon="5.28243">
        <ele>447</ele>
        <time>2013-04-28T09:32:58Z</time>
      </trkpt>
      <trkpt lat="49.97603" lon="5.28227">
        <ele>447</ele>
        <time>2013-04-28T09:33:09Z</time>
      </trkpt>
      <trkpt lat="49.97602" lon="5.28208">
        <ele>447</ele>
        <time>2013-04-28T09:33:19Z</time>
      </trkpt>
      <trkpt lat="49.97601" lon="5.28191">
        <ele>447</ele>
        <time>2013-04-28T09:33:29Z</time>
      </trkpt>
      <trkpt lat="49.976" lon="5.28173">
        <ele>448</ele>
        <time>2013-04-28T09:33:39Z</time>
      </trkpt>
      <trkpt lat="49.97599" lon="5.28152">
        <ele>448</ele>
        <time>2013-04-28T09:33:49Z</time>
      </trkpt>
      <trkpt lat="49.97598" lon="5.2813">
        <ele>447</ele>
        <time>2013-04-28T09:33:59Z</time>
      </trkpt>
      <trkpt lat="49.97598" lon="5.28109">
        <ele>448</ele>
        <time>2013-04-28T09:34:09Z</time>
      </trkpt>
      <trkpt lat="49.97599" lon="5.2809">
        <ele>448</ele>
        <time>2013-04-28T09:34:19Z</time>
      </trkpt>
      <trkpt lat="49.97599" lon="5.28069">
        <ele>448</ele>
        <time>2013-04-28T09:34:29Z</time>
      </trkpt>
      <trkpt lat="49.976" lon="5.28051">
        <ele>448</ele>
        <time>2013-04-28T09:34:39Z</time>
      </trkpt>
      <trkpt lat="49.97601" lon="5.28034">
        <ele>447</ele>
        <time>2013-04-28T09:34:49Z</time>
      </trkpt>
      <trkpt lat="49.97601" lon="5.28015">
        <ele>448</ele>
        <time>2013-04-28T09:34:59Z</time>
      </trkpt>
      <trkpt lat="49.97602" lon="5.27995">
        <ele>448</ele>
        <time>2013-04-28T09:35:09Z</time>
      </trkpt>
      <trkpt lat="49.97604" lon="5.27977">
        <ele>447</ele>
        <time>2013-04-28T09:35:20Z</time>
      </trkpt>
      <trkpt lat="49.97604" lon="5.27955">
        <ele>448</ele>
        <time>2013-04-28T09:35:30Z</time>
      </trkpt>
      <trkpt lat="49.97604" lon="5.27936">
        <ele>447</ele>
        <time>2013-04-28T09:35:40Z</time>
      </trkpt>
      <trkpt lat="49.97605" lon="5.27917">
        <ele>447</ele>
        <time>2013-04-28T09:35:50Z</time>
      </trkpt>
      <trkpt lat="49.97605" lon="5.27898">
        <ele>447</ele>
        <time>2013-04-28T09:36:00Z</time>
      </trkpt>
      <trkpt lat="49.97606" lon="5.27879">
        <ele>448</ele>
        <time>2013-04-28T09:36:10Z</time>
      </trkpt>
      <trkpt lat="49.97605" lon="5.2786">
        <ele>447</ele>
        <time>2013-04-28T09:36:20Z</time>
      </trkpt>
      <trkpt lat="49.97606" lon="5.27843">
        <ele>447</ele>
        <time>2013-04-28T09:36:30Z</time>
      </trkpt>
      <trkpt lat="49.97607" lon="5.27823">
        <ele>447</ele>
        <time>2013-04-28T09:36:40Z</time>
      </trkpt>
      <trkpt lat="49.97609" lon="5.27804">
        <ele>447</ele>
        <time>2013-04-28T09:36:50Z</time>
      </trkpt>
      <trkpt lat="49.97608" lon="5.27784">
        <ele>447</ele>
        <time>2013-04-28T09:37:00Z</time>
      </trkpt>
      <trkpt lat="49.97607" lon="5.27764">
        <ele>446</ele>
        <time>2013-04-28T09:37:10Z</time>
      </trkpt>
      <trkpt lat="49.97608" lon="5.27746">
        <ele>447</ele>
        <time>2013-04-28T09:37:20Z</time>
      </trkpt>
      <trkpt lat="49.97607" lon="5.27727">
        <ele>447</ele>
        <time>2013-04-28T09:37:30Z</time>
      </trkpt>
      <trkpt lat="49.97605" lon="5.27708">
        <ele>447</ele>
        <time>2013-04-28T09:37:40Z</time>
      </trkpt>
      <trkpt lat="49.97604" lon="5.2769">
        <ele>447</ele>
        <time>2013-04-28T09:37:51Z</time>
      </trkpt>
      <trkpt lat="49.97603" lon="5.27671">
        <ele>446</ele>
        <time>2013-04-28T09:38:01Z</time>
      </trkpt>
      <trkpt lat="49.97601" lon="5.2765">
        <ele>447</ele>
        <time>2013-04-28T09:38:11Z</time>
      </trkpt>
      <trkpt lat="49.976" lon="5.27631">
        <ele>446</ele>
        <time>2013-04-28T09:38:21Z</time>
      </trkpt>
      <trkpt lat="49.976" lon="5.27611">
        <ele>447</ele>
        <time>2013-04-28T09:38:31Z</time>
      </trkpt>
      <trkpt lat="49.976" lon="5.2759">
        <ele>446</ele>
        <time>2013-04-28T09:38:41Z</time>
      </trkpt>
      <trkpt lat="49.97601" lon="5.27569">
        <ele>446</ele>
        <time>2013-04-28T09:38:51Z</time>
      </trkpt>
      <trkpt lat="49.97601" lon="5.27548">
        <ele>446</ele>
        <time>2013-04-28T09:39:01Z</time>
      </trkpt>
      <trkpt lat="49.97602" lon="5.27527">
        <ele>445</ele>
        <time>2013-04-28T09:39:11Z</time>
      </trkpt>
      <trkpt lat="49.97603" lon="5.27506">
        <ele>446</ele>
        <time>2013-04-28T09:39:21Z</time>
      </trkpt>
      <trkpt lat="49.97605" lon="5.27486">
        <ele>445</ele>
        <time>2013-04-28T09:39:31Z</time>
      </trkpt>
      <trkpt lat="49.97607" lon="5.27466">
        <ele>446</ele>
        <time>2013-04-28T09:39:41Z</time>
      </trkpt>
      <trkpt lat="49.97609" lon="5.27445">
        <ele>445</ele>
        <time>2013-04-28T09:39:51Z</time>
      </trkpt>
      <trkpt lat="49.9761" lon="5.27425">
        <ele>445</ele>
        <time>2013-04-28T09:40:01Z</time>
      </trkpt>
      <trkpt lat="49.97611" lon="5.27408">
        <ele>445</ele>
        <time>2013-04-28T09:40:11Z</time>
      </trkpt>
      <trkpt lat="49.97611" lon="5.27393">
        <ele>445</ele>
        <time>2013-04-28T09:40:22Z</time>
      </trkpt>
      <trkpt lat="49.97612" lon="5.27372">
        <ele>445</ele>
        <time>2013-04-28T09:40:32Z</time>
      </trkpt>
      <trkpt lat="49.97613" lon="5.2735">
        <ele>444</ele>
        <time>2013-04-28T09:40:42Z</time>
      </trkpt>
      <trkpt lat="49.97615" lon="5.2733">
        <ele>445</ele>
        <time>2013-04-28T09:40:52Z</time>
      </trkpt>
      <trkpt lat="49.97616" lon="5.27311">
        <ele>444</ele>
        <time>2013-04-28T09:41:02Z</time>
      </trkpt>
      <trkpt lat="49.97617" lon="5.27293">
        <ele>444</ele>
        <time>2013-04-28T09:41:12Z</time>
      </trkpt>
      <trkpt lat="49.97618" lon="5.27271">
        <ele>444</ele>
        <time>2013-04-28T09:41:22Z</time>
      </trkpt>
      <trkpt lat="49.9762" lon="5.27251">
        <ele>443</ele>
        <time>2013-04-28T09:41:32Z</time>
      </trkpt>
      <trkpt lat="49.97622" lon="5.27232">
        <ele>444</ele>
        <time>2013-04-28T09:41:42Z</time>
      </trkpt>
      <trkpt lat="49.97623" lon="5.27212">
        <ele>443</ele>
        <time>2013-04-28T09:41:52Z</time>
      </trkpt>
      <trkpt lat="49.97624" lon="5.27192">
        <ele>443</ele>
        <time>2013-04-28T09:42:02Z</time>
      </trkpt>
      <trkpt lat="49.97625" lon="5.27172">
        <ele>443</ele>
        <time>2013-04-28T09:42:12Z</time>
      </trkpt>
      <trkpt lat="49.97625" lon="5.27152">
        <ele>443</ele>
        <time>2013-04-28T09:42:22Z</time>
      </trkpt>
      <trkpt lat="49.97625" lon="5.27133">
        <ele>443</ele>
        <time>2013-04-28T09:42:32Z</time>
      </trkpt>
      <trkpt lat="49.97625" lon="5.27114">
        <ele>443</ele>
        <time>2013-04-28T09:42:42Z</time>
      </trkpt>
      <trkpt lat="49.97624" lon="5.27094">
        <ele>443</ele>
        <time>2013-04-28T09:42:53Z</time>
      </trkpt>
      <trkpt lat="49.97623" lon="5.27072">
        <ele>442</ele>
        <time>2013-04-28T09:43:03Z</time>
      </trkpt>
      <trkpt lat="49.97623" lon="5.27056">
        <ele>442</ele>
        <time>2013-04-28T09:43:13Z</time>
      </trkpt>
      <trkpt lat="49.97623" lon="5.2704">
        <ele>442</ele>
        <time>2013-04-28T09:43:23Z</time>
      </trkpt>
      <trkpt lat="49.97622" lon="5.27023">
        <ele>442</ele>
        <time>2013-04-28T09:43:33Z</time>
      </trkpt>
      <trkpt lat="49.97622" lon="5.27006">
        <ele>441</ele>
        <time>2013-04-28T09:43:43Z</time>
      </trkpt>
      <trkpt lat="49.97621" lon="5.27001">
        <ele>442</ele>
        <time>2013-04-28T09:43:53Z</time>
      </trkpt>
      <trkpt lat="49.97622" lon="5.26993">
        <ele>442</ele>
        <time>2013-04-28T09:44:03Z</time>
      </trkpt>
      <trkpt lat="49.9762" lon="5.2698">
        <ele>441</ele>
        <time>2013-04-28T09:44:13Z</time>
      </trkpt>
      <trkpt lat="49.97619" lon="5.26959">
        <ele>442</ele>
        <time>2013-04-28T09:44:24Z</time>
      </trkpt>
      <trkpt lat="49.9762" lon="5.26937">
        <ele>441</ele>
        <time>2013-04-28T09:44:34Z</time>
      </trkpt>
      <trkpt lat="49.97619" lon="5.26933">
        <ele>441</ele>
        <time>2013-04-28T09:44:44Z</time>
      </trkpt>
      <trkpt lat="49.97617" lon="5.26918">
        <ele>441</ele>
        <time>2013-04-28T09:44:54Z</time>
      </trkpt>
      <trkpt lat="49.97616" lon="5.26898">
        <ele>441</ele>
        <time>2013-04-28T09:45:04Z</time>
      </trkpt>
      <trkpt lat="49.97617" lon="5.26892">
        <ele>440</ele>
        <time>2013-04-28T09:45:14Z</time>
      </trkpt>
      <trkpt lat="49.97617" lon="5.26891">
        <ele>441</ele>
        <time>2013-04-28T09:45:24Z</time>
      </trkpt>
      <trkpt lat="49.97616" lon="5.26882">
        <ele>441</ele>
        <time>2013-04-28T09:45:34Z</time>
      </trkpt>
      <trkpt lat="49.97622" lon="5.26871">
        <ele>440</ele>
        <time>2013-04-28T09:45:44Z</time>
      </trkpt>
      <trkpt lat="49.97632" lon="5.26861">
        <ele>439</ele>
        <time>2013-04-28T09:45:54Z</time>
      </trkpt>
      <trkpt lat="49.97639" lon="5.26853">
        <ele>439</ele>
        <time>2013-04-28T09:46:05Z</time>
      </trkpt>
      <trkpt lat="49.9764" lon="5.26851">
        <ele>439</ele>
        <time>2013-04-28T09:46:15Z</time>
      </trkpt>
      <trkpt lat="49.97646" lon="5.26845">
        <ele>439</ele>
        <time>2013-04-28T09:46:25Z</time>
      </trkpt>
      <trkpt lat="49.97653" lon="5.26835">
        <ele>438</ele>
        <time>2013-04-28T09:46:35Z</time>
      </trkpt>
      <trkpt lat="49.97661" lon="5.26821">
        <ele>438</ele>
        <time>2013-04-28T09:46:45Z</time>
      </trkpt>
      <trkpt lat="49.97669" lon="5.26809">
        <ele>437</ele>
        <time>2013-04-28T09:46:55Z</time>
      </trkpt>
      <trkpt lat="49.97677" lon="5.26794">
        <ele>437</ele>
        <time>2013-04-28T09:47:05Z</time>
      </trkpt>
      <trkpt lat="49.97685" lon="5.26778">
        <ele>436</ele>
        <time>2013-04-28T09:47:15Z</time>
      </trkpt>
      <trkpt lat="49.97694" lon="5.26763">
        <ele>434</ele>
        <time>2013-04-28T09:47:26Z</time>
      </trkpt>
      <trkpt lat="49.97705" lon="5.26748">
        <ele>434</ele>
        <time>2013-04-28T09:47:36Z</time>
      </trkpt>
      <trkpt lat="49.97712" lon="5.26733">
        <ele>433</ele>
        <time>2013-04-28T09:47:46Z</time>
      </trkpt>
      <trkpt lat="49.97718" lon="5.26713">
        <ele>433</ele>
        <time>2013-04-28T09:47:56Z</time>
      </trkpt>
      <trkpt lat="49.97723" lon="5.26696">
        <ele>432</ele>
        <time>2013-04-28T09:48:06Z</time>
      </trkpt>
      <trkpt lat="49.97728" lon="5.26679">
        <ele>432</ele>
        <time>2013-04-28T09:48:16Z</time>
      </trkpt>
      <trkpt lat="49.97734" lon="5.26662">
        <ele>432</ele>
        <time>2013-04-28T09:48:26Z</time>
      </trkpt>
      <trkpt lat="49.97739" lon="5.26646">
        <ele>431</ele>
        <time>2013-04-28T09:48:36Z</time>
      </trkpt>
      <trkpt lat="49.97742" lon="5.26631">
        <ele>430</ele>
        <time>2013-04-28T09:48:46Z</time>
      </trkpt>
      <trkpt lat="49.97749" lon="5.26617">
        <ele>430</ele>
        <time>2013-04-28T09:48:56Z</time>
      </trkpt>
      <trkpt lat="49.97758" lon="5.26605">
        <ele>428</ele>
        <time>2013-04-28T09:49:06Z</time>
      </trkpt>
      <trkpt lat="49.97767" lon="5.26592">
        <ele>427</ele>
        <time>2013-04-28T09:49:17Z</time>
      </trkpt>
      <trkpt lat="49.97777" lon="5.26579">
        <ele>425</ele>
        <time>2013-04-28T09:49:27Z</time>
      </trkpt>
      <trkpt lat="49.97786" lon="5.26566">
        <ele>424</ele>
        <time>2013-04-28T09:49:37Z</time>
      </trkpt>
      <trkpt lat="49.97794" lon="5.26551">
        <ele>423</ele>
        <time>2013-04-28T09:49:47Z</time>
      </trkpt>
      <trkpt lat="49.978" lon="5.26534">
        <ele>422</ele>
        <time>2013-04-28T09:49:58Z</time>
      </trkpt>
      <trkpt lat="49.97805" lon="5.26515">
        <ele>421</ele>
        <time>2013-04-28T09:50:08Z</time>
      </trkpt>
      <trkpt lat="49.9781" lon="5.26496">
        <ele>420</ele>
        <time>2013-04-28T09:50:18Z</time>
      </trkpt>
      <trkpt lat="49.97815" lon="5.2648">
        <ele>420</ele>
        <time>2013-04-28T09:50:28Z</time>
      </trkpt>
      <trkpt lat="49.9782" lon="5.26461">
        <ele>418</ele>
        <time>2013-04-28T09:50:38Z</time>
      </trkpt>
      <trkpt lat="49.97826" lon="5.26443">
        <ele>417</ele>
        <time>2013-04-28T09:50:49Z</time>
      </trkpt>
      <trkpt lat="49.97834" lon="5.26421">
        <ele>417</ele>
        <time>2013-04-28T09:50:59Z</time>
      </trkpt>
      <trkpt lat="49.97837" lon="5.26404">
        <ele>416</ele>
        <time>2013-04-28T09:51:09Z</time>
      </trkpt>
      <trkpt lat="49.97839" lon="5.26378">
        <ele>415</ele>
        <time>2013-04-28T09:51:19Z</time>
      </trkpt>
      <trkpt lat="49.97839" lon="5.26363">
        <ele>415</ele>
        <time>2013-04-28T09:51:29Z</time>
      </trkpt>
      <trkpt lat="49.9784" lon="5.26337">
        <ele>414</ele>
        <time>2013-04-28T09:51:39Z</time>
      </trkpt>
      <trkpt lat="49.97841" lon="5.2632">
        <ele>414</ele>
        <time>2013-04-28T09:51:49Z</time>
      </trkpt>
      <trkpt lat="49.9784" lon="5.26301">
        <ele>413</ele>
        <time>2013-04-28T09:51:59Z</time>
      </trkpt>
      <trkpt lat="49.9784" lon="5.2629">
        <ele>413</ele>
        <time>2013-04-28T09:52:09Z</time>
      </trkpt>
      <trkpt lat="49.9784" lon="5.26285">
        <ele>412</ele>
        <time>2013-04-28T09:52:19Z</time>
      </trkpt>
      <trkpt lat="49.9784" lon="5.26274">
        <ele>413</ele>
        <time>2013-04-28T09:52:29Z</time>
      </trkpt>
      <trkpt lat="49.97839" lon="5.26257">
        <ele>412</ele>
        <time>2013-04-28T09:52:39Z</time>
      </trkpt>
      <trkpt lat="49.97839" lon="5.2624">
        <ele>411</ele>
        <time>2013-04-28T09:52:50Z</time>
      </trkpt>
      <trkpt lat="49.97837" lon="5.26221">
        <ele>410</ele>
        <time>2013-04-28T09:53:00Z</time>
      </trkpt>
      <trkpt lat="49.97836" lon="5.26202">
        <ele>410</ele>
        <time>2013-04-28T09:53:10Z</time>
      </trkpt>
      <trkpt lat="49.97835" lon="5.26185">
        <ele>410</ele>
        <time>2013-04-28T09:53:20Z</time>
      </trkpt>
      <trkpt lat="49.97836" lon="5.2617">
        <ele>409</ele>
        <time>2013-04-28T09:53:30Z</time>
      </trkpt>
      <trkpt lat="49.97836" lon="5.26153">
        <ele>408</ele>
        <time>2013-04-28T09:53:40Z</time>
      </trkpt>
      <trkpt lat="49.97834" lon="5.2613">
        <ele>407</ele>
        <time>2013-04-28T09:53:50Z</time>
      </trkpt>
      <trkpt lat="49.97833" lon="5.26108">
        <ele>406</ele>
        <time>2013-04-28T09:54:00Z</time>
      </trkpt>
      <trkpt lat="49.97833" lon="5.26088">
        <ele>405</ele>
        <time>2013-04-28T09:54:11Z</time>
      </trkpt>
      <trkpt lat="49.97833" lon="5.26066">
        <ele>404</ele>
        <time>2013-04-28T09:54:21Z</time>
      </trkpt>
      <trkpt lat="49.97834" lon="5.26048">
        <ele>403</ele>
        <time>2013-04-28T09:54:32Z</time>
      </trkpt>
      <trkpt lat="49.97835" lon="5.26027">
        <ele>403</ele>
        <time>2013-04-28T09:54:42Z</time>
      </trkpt>
      <trkpt lat="49.97836" lon="5.2601">
        <ele>402</ele>
        <time>2013-04-28T09:54:52Z</time>
      </trkpt>
      <trkpt lat="49.97836" lon="5.25993">
        <ele>401</ele>
        <time>2013-04-28T09:55:03Z</time>
      </trkpt>
      <trkpt lat="49.97836" lon="5.25973">
        <ele>400</ele>
        <time>2013-04-28T09:55:13Z</time>
      </trkpt>
      <trkpt lat="49.97837" lon="5.25952">
        <ele>400</ele>
        <time>2013-04-28T09:55:23Z</time>
      </trkpt>
      <trkpt lat="49.9784" lon="5.25935">
        <ele>399</ele>
        <time>2013-04-28T09:55:33Z</time>
      </trkpt>
      <trkpt lat="49.97841" lon="5.25917">
        <ele>398</ele>
        <time>2013-04-28T09:55:43Z</time>
      </trkpt>
      <trkpt lat="49.97837" lon="5.25899">
        <ele>398</ele>
        <time>2013-04-28T09:55:53Z</time>
      </trkpt>
      <trkpt lat="49.97831" lon="5.25886">
        <ele>398</ele>
        <time>2013-04-28T09:56:03Z</time>
      </trkpt>
      <trkpt lat="49.97822" lon="5.25878">
        <ele>398</ele>
        <time>2013-04-28T09:56:13Z</time>
      </trkpt>
      <trkpt lat="49.9781" lon="5.25872">
        <ele>398</ele>
        <time>2013-04-28T09:56:23Z</time>
      </trkpt>
      <trkpt lat="49.978" lon="5.25866">
        <ele>398</ele>
        <time>2013-04-28T09:56:33Z</time>
      </trkpt>
      <trkpt lat="49.97791" lon="5.25858">
        <ele>399</ele>
        <time>2013-04-28T09:56:43Z</time>
      </trkpt>
      <trkpt lat="49.9778" lon="5.25852">
        <ele>399</ele>
        <time>2013-04-28T09:56:53Z</time>
      </trkpt>
      <trkpt lat="49.97774" lon="5.25853">
        <ele>399</ele>
        <time>2013-04-28T09:57:03Z</time>
      </trkpt>
      <trkpt lat="49.97772" lon="5.25856">
        <ele>399</ele>
        <time>2013-04-28T09:57:13Z</time>
      </trkpt>
      <trkpt lat="49.97771" lon="5.2584">
        <ele>398</ele>
        <time>2013-04-28T09:57:23Z</time>
      </trkpt>
      <trkpt lat="49.97772" lon="5.25823">
        <ele>398</ele>
        <time>2013-04-28T09:57:34Z</time>
      </trkpt>
      <trkpt lat="49.97773" lon="5.25803">
        <ele>397</ele>
        <time>2013-04-28T09:57:44Z</time>
      </trkpt>
      <trkpt lat="49.97777" lon="5.25785">
        <ele>397</ele>
        <time>2013-04-28T09:57:54Z</time>
      </trkpt>
      <trkpt lat="49.9778" lon="5.25767">
        <ele>395</ele>
        <time>2013-04-28T09:58:04Z</time>
      </trkpt>
      <trkpt lat="49.97783" lon="5.25749">
        <ele>395</ele>
        <time>2013-04-28T09:58:14Z</time>
      </trkpt>
      <trkpt lat="49.97788" lon="5.25732">
        <ele>394</ele>
        <time>2013-04-28T09:58:24Z</time>
      </trkpt>
      <trkpt lat="49.97795" lon="5.25718">
        <ele>393</ele>
        <time>2013-04-28T09:58:34Z</time>
      </trkpt>
      <trkpt lat="49.97803" lon="5.25705">
        <ele>393</ele>
        <time>2013-04-28T09:58:44Z</time>
      </trkpt>
      <trkpt lat="49.97809" lon="5.2569">
        <ele>393</ele>
        <time>2013-04-28T09:58:55Z</time>
      </trkpt>
      <trkpt lat="49.97817" lon="5.25678">
        <ele>394</ele>
        <time>2013-04-28T09:59:05Z</time>
      </trkpt>
      <trkpt lat="49.97823" lon="5.25667">
        <ele>393</ele>
        <time>2013-04-28T09:59:15Z</time>
      </trkpt>
      <trkpt lat="49.97829" lon="5.25652">
        <ele>393</ele>
        <time>2013-04-28T09:59:25Z</time>
      </trkpt>
      <trkpt lat="49.97829" lon="5.25639">
        <ele>394</ele>
        <time>2013-04-28T09:59:35Z</time>
      </trkpt>
      <trkpt lat="49.9782" lon="5.2563">
        <ele>394</ele>
        <time>2013-04-28T09:59:45Z</time>
      </trkpt>
      <trkpt lat="49.97814" lon="5.25623">
        <ele>394</ele>
        <time>2013-04-28T09:59:55Z</time>
      </trkpt>
      <trkpt lat="49.97813" lon="5.2562">
        <ele>395</ele>
        <time>2013-04-28T10:00:05Z</time>
      </trkpt>
      <trkpt lat="49.97811" lon="5.25618">
        <ele>395</ele>
        <time>2013-04-28T10:00:15Z</time>
      </trkpt>
      <trkpt lat="49.9781" lon="5.25617">
        <ele>395</ele>
        <time>2013-04-28T10:00:25Z</time>
      </trkpt>
      <trkpt lat="49.97811" lon="5.25616">
        <ele>395</ele>
        <time>2013-04-28T10:00:35Z</time>
      </trkpt>
      <trkpt lat="49.9781" lon="5.25614">
        <ele>395</ele>
        <time>2013-04-28T10:00:45Z</time>
      </trkpt>
      <trkpt lat="49.97808" lon="5.2561">
        <ele>395</ele>
        <time>2013-04-28T10:00:55Z</time>
      </trkpt>
      <trkpt lat="49.97807" lon="5.25608">
        <ele>395</ele>
        <time>2013-04-28T10:01:05Z</time>
      </trkpt>
      <trkpt lat="49.97807" lon="5.25605">
        <ele>395</ele>
        <time>2013-04-28T10:01:16Z</time>
      </trkpt>
      <trkpt lat="49.97807" lon="5.25603">
        <ele>395</ele>
        <time>2013-04-28T10:01:26Z</time>
      </trkpt>
      <trkpt lat="49.97806" lon="5.25602">
        <ele>395</ele>
        <time>2013-04-28T10:01:36Z</time>
      </trkpt>
      <trkpt lat="49.97807" lon="5.25604">
        <ele>395</ele>
        <time>2013-04-28T10:01:46Z</time>
      </trkpt>
      <trkpt lat="49.97808" lon="5.25608">
        <ele>396</ele>
        <time>2013-04-28T10:01:56Z</time>
      </trkpt>
      <trkpt lat="49.97808" lon="5.25611">
        <ele>395</ele>
        <time>2013-04-28T10:02:06Z</time>
      </trkpt>
      <trkpt lat="49.97808" lon="5.25613">
        <ele>395</ele>
        <time>2013-04-28T10:02:16Z</time>
      </trkpt>
      <trkpt lat="49.97808" lon="5.25615">
        <ele>395</ele>
        <time>2013-04-28T10:02:26Z</time>
      </trkpt>
      <trkpt lat="49.97806" lon="5.25618">
        <ele>395</ele>
        <time>2013-04-28T10:02:36Z</time>
      </trkpt>
      <trkpt lat="49.97807" lon="5.25621">
        <ele>395</ele>
        <time>2013-04-28T10:02:46Z</time>
      </trkpt>
      <trkpt lat="49.97809" lon="5.25623">
        <ele>395</ele>
        <time>2013-04-28T10:02:56Z</time>
      </trkpt>
      <trkpt lat="49.97808" lon="5.25623">
        <ele>395</ele>
        <time>2013-04-28T10:03:06Z</time>
      </trkpt>
      <trkpt lat="49.97809" lon="5.25624">
        <ele>395</ele>
        <time>2013-04-28T10:03:16Z</time>
      </trkpt>
      <trkpt lat="49.97808" lon="5.25624">
        <ele>395</ele>
        <time>2013-04-28T10:03:27Z</time>
      </trkpt>
      <trkpt lat="49.97808" lon="5.25625">
        <ele>396</ele>
        <time>2013-04-28T10:03:37Z</time>
      </trkpt>
      <trkpt lat="49.97809" lon="5.25625">
        <ele>396</ele>
        <time>2013-04-28T10:03:47Z</time>
      </trkpt>
      <trkpt lat="49.9781" lon="5.25623">
        <ele>395</ele>
        <time>2013-04-28T10:03:57Z</time>
      </trkpt>
      <trkpt lat="49.97809" lon="5.25622">
        <ele>396</ele>
        <time>2013-04-28T10:04:07Z</time>
      </trkpt>
      <trkpt lat="49.97807" lon="5.25623">
        <ele>395</ele>
        <time>2013-04-28T10:04:17Z</time>
      </trkpt>
      <trkpt lat="49.97807" lon="5.25622">
        <ele>395</ele>
        <time>2013-04-28T10:04:27Z</time>
      </trkpt>
      <trkpt lat="49.97807" lon="5.25621">
        <ele>395</ele>
        <time>2013-04-28T10:04:37Z</time>
      </trkpt>
      <trkpt lat="49.97808" lon="5.25619">
        <ele>396</ele>
        <time>2013-04-28T10:04:47Z</time>
      </trkpt>
      <trkpt lat="49.9781" lon="5.25616">
        <ele>395</ele>
        <time>2013-04-28T10:04:58Z</time>
      </trkpt>
      <trkpt lat="49.97813" lon="5.25613">
        <ele>396</ele>
        <time>2013-04-28T10:05:08Z</time>
      </trkpt>
      <trkpt lat="49.97815" lon="5.25612">
        <ele>395</ele>
        <time>2013-04-28T10:05:18Z</time>
      </trkpt>
      <trkpt lat="49.97815" lon="5.25613">
        <ele>395</ele>
        <time>2013-04-28T10:05:28Z</time>
      </trkpt>
      <trkpt lat="49.97814" lon="5.25612">
        <ele>395</ele>
        <time>2013-04-28T10:05:38Z</time>
      </trkpt>
      <trkpt lat="49.97813" lon="5.25612">
        <ele>395</ele>
        <time>2013-04-28T10:05:48Z</time>
      </trkpt>
      <trkpt lat="49.97813" lon="5.25614">
        <ele>395</ele>
        <time>2013-04-28T10:05:58Z</time>
      </trkpt>
      <trkpt lat="49.97818" lon="5.25622">
        <ele>395</ele>
        <time>2013-04-28T10:06:08Z</time>
      </trkpt>
      <trkpt lat="49.97826" lon="5.25623">
        <ele>395</ele>
        <time>2013-04-28T10:06:18Z</time>
      </trkpt>
      <trkpt lat="49.97826" lon="5.25622">
        <ele>394</ele>
        <time>2013-04-28T10:06:28Z</time>
      </trkpt>
      <trkpt lat="49.97827" lon="5.25623">
        <ele>395</ele>
        <time>2013-04-28T10:06:38Z</time>
      </trkpt>
      <trkpt lat="49.97827" lon="5.25624">
        <ele>395</ele>
        <time>2013-04-28T10:06:48Z</time>
      </trkpt>
      <trkpt lat="49.97827" lon="5.25624">
        <ele>395</ele>
        <time>2013-04-28T10:06:58Z</time>
      </trkpt>
      <trkpt lat="49.97828" lon="5.25623">
        <ele>395</ele>
        <time>2013-04-28T10:07:08Z</time>
      </trkpt>
      <trkpt lat="49.97828" lon="5.25624">
        <ele>395</ele>
        <time>2013-04-28T10:07:18Z</time>
      </trkpt>
      <trkpt lat="49.97829" lon="5.25625">
        <ele>395</ele>
        <time>2013-04-28T10:07:28Z</time>
      </trkpt>
      <trkpt lat="49.97829" lon="5.25626">
        <ele>395</ele>
        <time>2013-04-28T10:07:39Z</time>
      </trkpt>
      <trkpt lat="49.9783" lon="5.25625">
        <ele>395</ele>
        <time>2013-04-28T10:07:49Z</time>
      </trkpt>
      <trkpt lat="49.9783" lon="5.25625">
        <ele>396</ele>
        <time>2013-04-28T10:07:59Z</time>
      </trkpt>
      <trkpt lat="49.97829" lon="5.25625">
        <ele>396</ele>
        <time>2013-04-28T10:08:09Z</time>
      </trkpt>
      <trkpt lat="49.97828" lon="5.25625">
        <ele>396</ele>
        <time>2013-04-28T10:08:19Z</time>
      </trkpt>
      <trkpt lat="49.97829" lon="5.25624">
        <ele>396</ele>
        <time>2013-04-28T10:08:29Z</time>
      </trkpt>
      <trkpt lat="49.97829" lon="5.25624">
        <ele>396</ele>
        <time>2013-04-28T10:08:39Z</time>
      </trkpt>
      <trkpt lat="49.97828" lon="5.25623">
        <ele>395</ele>
        <time>2013-04-28T10:08:49Z</time>
      </trkpt>
      <trkpt lat="49.97826" lon="5.25621">
        <ele>395</ele>
        <time>2013-04-28T10:08:59Z</time>
      </trkpt>
      <trkpt lat="49.97826" lon="5.25622">
        <ele>396</ele>
        <time>2013-04-28T10:09:09Z</time>
      </trkpt>
      <trkpt lat="49.97826" lon="5.2562">
        <ele>396</ele>
        <time>2013-04-28T10:09:19Z</time>
      </trkpt>
      <trkpt lat="49.97826" lon="5.25625">
        <ele>396</ele>
        <time>2013-04-28T10:09:20Z</time>
      </trkpt>
      <trkpt lat="49.97823" lon="5.25624">
        <ele>396</ele>
        <time>2013-04-28T10:09:31Z</time>
      </trkpt>
      <trkpt lat="49.97821" lon="5.25623">
        <ele>396</ele>
        <time>2013-04-28T10:09:43Z</time>
      </trkpt>
      <trkpt lat="49.97821" lon="5.25622">
        <ele>396</ele>
        <time>2013-04-28T10:09:44Z</time>
      </trkpt>
    </trkseg>
  </trk>
</gpx>